﻿<?xml version="1.0" encoding="UTF-8" standalone="no"?>
<gpx xmlns="http://www.topografix.com/GPX/1/1" xmlns:gpxtpx="http://www.garmin.com/xmlschemas/TrackPointExtension/v1" xmlns:xsi="http://www.w3.org/2001/XMLSchema-instance" creator="Hribi.net" version="1.1" xsi:schemaLocation="http://www.topografix.com/GPX/1/1 http://www.topografix.com/GPX/1/1/gpx.xsd http://www.garmin.com/xmlschemas/TrackPointExtension/v1 http://www.garmin.com/xmlschemas/TrackPointExtensionv1.xsd">
  <metadata>
    <name>GPS sled</name>
    <desc>www.hribi.net</desc>
    <author>
      <name>hribi.net</name>
    </author>
    <link href="http://www.hribi.net">
      <text>Hribi.net</text>
    </link>
  </metadata>
  <trk>
    <trkseg>
      <trkpt lat="45.306360" lon="14.206620">
        <ele>1025.9568</ele>
        <time>2012-05-01T04:54:16Z</time>
      </trkpt>
      <trkpt lat="45.306440" lon="14.206620">
        <ele>1035.4056</ele>
        <time>2012-05-01T04:54:16Z</time>
      </trkpt>
      <trkpt lat="45.306440" lon="14.206710">
        <ele>1047.9024</ele>
        <time>2012-05-01T04:54:18Z</time>
      </trkpt>
      <trkpt lat="45.306390" lon="14.206690">
        <ele>1039.9776</ele>
        <time>2012-05-01T04:54:19Z</time>
      </trkpt>
      <trkpt lat="45.306430" lon="14.206670">
        <ele>1046.988</ele>
        <time>2012-05-01T04:54:19Z</time>
      </trkpt>
      <trkpt lat="45.306420" lon="14.206550">
        <ele>1046.6832</ele>
        <time>2012-05-01T04:54:23Z</time>
      </trkpt>
      <trkpt lat="45.306380" lon="14.206610">
        <ele>1048.8168</ele>
        <time>2012-05-01T04:54:24Z</time>
      </trkpt>
      <trkpt lat="45.306340" lon="14.206670">
        <ele>1045.1592</ele>
        <time>2012-05-01T04:54:26Z</time>
      </trkpt>
      <trkpt lat="45.306350" lon="14.206600">
        <ele>1052.1696</ele>
        <time>2012-05-01T04:54:27Z</time>
      </trkpt>
      <trkpt lat="45.306180" lon="14.206530">
        <ele>1034.4912</ele>
        <time>2012-05-01T04:54:30Z</time>
      </trkpt>
      <trkpt lat="45.306120" lon="14.206480">
        <ele>1028.0904</ele>
        <time>2012-05-01T04:54:31Z</time>
      </trkpt>
      <trkpt lat="45.306250" lon="14.206490">
        <ele>1043.0256</ele>
        <time>2012-05-01T04:54:35Z</time>
      </trkpt>
      <trkpt lat="45.306180" lon="14.206510">
        <ele>1031.4432</ele>
        <time>2012-05-01T04:54:36Z</time>
      </trkpt>
      <trkpt lat="45.306140" lon="14.206430">
        <ele>1028.0904</ele>
        <time>2012-05-01T04:54:39Z</time>
      </trkpt>
      <trkpt lat="45.306270" lon="14.206440">
        <ele>1030.8336</ele>
        <time>2012-05-01T04:54:43Z</time>
      </trkpt>
      <trkpt lat="45.306280" lon="14.206370">
        <ele>1041.8064</ele>
        <time>2012-05-01T04:54:43Z</time>
      </trkpt>
      <trkpt lat="45.306220" lon="14.206420">
        <ele>1033.272</ele>
        <time>2012-05-01T04:54:45Z</time>
      </trkpt>
      <trkpt lat="45.306210" lon="14.206350">
        <ele>1033.272</ele>
        <time>2012-05-01T04:54:46Z</time>
      </trkpt>
      <trkpt lat="45.306230" lon="14.206410">
        <ele>1042.1112</ele>
        <time>2012-05-01T04:54:49Z</time>
      </trkpt>
      <trkpt lat="45.306340" lon="14.206360">
        <ele>1063.752</ele>
        <time>2012-05-01T04:54:57Z</time>
      </trkpt>
      <trkpt lat="45.306320" lon="14.206270">
        <ele>1052.7792</ele>
        <time>2012-05-01T04:54:58Z</time>
      </trkpt>
      <trkpt lat="45.306260" lon="14.206250">
        <ele>1053.084</ele>
        <time>2012-05-01T04:54:58Z</time>
      </trkpt>
      <trkpt lat="45.306220" lon="14.206210">
        <ele>1041.1968</ele>
        <time>2012-05-01T04:54:59Z</time>
      </trkpt>
      <trkpt lat="45.306180" lon="14.206150">
        <ele>1044.5496</ele>
        <time>2012-05-01T04:55:01Z</time>
      </trkpt>
      <trkpt lat="45.306240" lon="14.206200">
        <ele>1044.8544</ele>
        <time>2012-05-01T04:55:03Z</time>
      </trkpt>
      <trkpt lat="45.306290" lon="14.206260">
        <ele>1037.2344</ele>
        <time>2012-05-01T04:55:06Z</time>
      </trkpt>
      <trkpt lat="45.306240" lon="14.206150">
        <ele>1039.368</ele>
        <time>2012-05-01T04:55:06Z</time>
      </trkpt>
      <trkpt lat="45.306280" lon="14.206220">
        <ele>1051.56</ele>
        <time>2012-05-01T04:55:10Z</time>
      </trkpt>
      <trkpt lat="45.306130" lon="14.206200">
        <ele>1034.796</ele>
        <time>2012-05-01T04:55:12Z</time>
      </trkpt>
      <trkpt lat="45.306110" lon="14.206080">
        <ele>1032.3576</ele>
        <time>2012-05-01T04:55:13Z</time>
      </trkpt>
      <trkpt lat="45.306220" lon="14.206040">
        <ele>1040.892</ele>
        <time>2012-05-01T04:55:18Z</time>
      </trkpt>
      <trkpt lat="45.306260" lon="14.205950">
        <ele>1046.3784</ele>
        <time>2012-05-01T04:55:20Z</time>
      </trkpt>
      <trkpt lat="45.306170" lon="14.206010">
        <ele>1036.32</ele>
        <time>2012-05-01T04:55:22Z</time>
      </trkpt>
      <trkpt lat="45.306130" lon="14.205910">
        <ele>1039.6728</ele>
        <time>2012-05-01T04:55:24Z</time>
      </trkpt>
      <trkpt lat="45.306090" lon="14.205890">
        <ele>1045.1592</ele>
        <time>2012-05-01T04:55:28Z</time>
      </trkpt>
      <trkpt lat="45.306040" lon="14.205760">
        <ele>1047.2928</ele>
        <time>2012-05-01T04:55:29Z</time>
      </trkpt>
      <trkpt lat="45.306030" lon="14.205830">
        <ele>1037.2344</ele>
        <time>2012-05-01T04:55:33Z</time>
      </trkpt>
      <trkpt lat="45.306080" lon="14.205810">
        <ele>1035.7104</ele>
        <time>2012-05-01T04:55:33Z</time>
      </trkpt>
      <trkpt lat="45.306100" lon="14.205750">
        <ele>1041.1968</ele>
        <time>2012-05-01T04:55:37Z</time>
      </trkpt>
      <trkpt lat="45.306150" lon="14.205790">
        <ele>1039.6728</ele>
        <time>2012-05-01T04:55:40Z</time>
      </trkpt>
      <trkpt lat="45.306110" lon="14.205690">
        <ele>1045.464</ele>
        <time>2012-05-01T04:55:41Z</time>
      </trkpt>
      <trkpt lat="45.306160" lon="14.205640">
        <ele>1050.6456</ele>
        <time>2012-05-01T04:55:44Z</time>
      </trkpt>
      <trkpt lat="45.306200" lon="14.205670">
        <ele>1053.084</ele>
        <time>2012-05-01T04:55:45Z</time>
      </trkpt>
      <trkpt lat="45.306260" lon="14.205600">
        <ele>1061.6184</ele>
        <time>2012-05-01T04:55:49Z</time>
      </trkpt>
      <trkpt lat="45.306210" lon="14.205560">
        <ele>1061.3136</ele>
        <time>2012-05-01T04:55:52Z</time>
      </trkpt>
      <trkpt lat="45.306160" lon="14.205520">
        <ele>1058.2656</ele>
        <time>2012-05-01T04:55:52Z</time>
      </trkpt>
      <trkpt lat="45.306110" lon="14.205480">
        <ele>1062.228</ele>
        <time>2012-05-01T04:55:56Z</time>
      </trkpt>
      <trkpt lat="45.306150" lon="14.205440">
        <ele>1071.6768</ele>
        <time>2012-05-01T04:55:56Z</time>
      </trkpt>
      <trkpt lat="45.306070" lon="14.205420">
        <ele>1066.4952</ele>
        <time>2012-05-01T04:55:57Z</time>
      </trkpt>
      <trkpt lat="45.305860" lon="14.205280">
        <ele>1032.3576</ele>
        <time>2012-05-01T04:56:04Z</time>
      </trkpt>
      <trkpt lat="45.305780" lon="14.205260">
        <ele>1024.4328</ele>
        <time>2012-05-01T04:56:06Z</time>
      </trkpt>
      <trkpt lat="45.305700" lon="14.205250">
        <ele>1019.8608</ele>
        <time>2012-05-01T04:56:07Z</time>
      </trkpt>
      <trkpt lat="45.305710" lon="14.205190">
        <ele>1026.5664</ele>
        <time>2012-05-01T04:56:14Z</time>
      </trkpt>
      <trkpt lat="45.305670" lon="14.205130">
        <ele>1023.5184</ele>
        <time>2012-05-01T04:56:16Z</time>
      </trkpt>
      <trkpt lat="45.305650" lon="14.205070">
        <ele>1024.7376</ele>
        <time>2012-05-01T04:56:20Z</time>
      </trkpt>
      <trkpt lat="45.305620" lon="14.205010">
        <ele>1023.5184</ele>
        <time>2012-05-01T04:56:24Z</time>
      </trkpt>
      <trkpt lat="45.305600" lon="14.204940">
        <ele>1025.0424</ele>
        <time>2012-05-01T04:56:29Z</time>
      </trkpt>
      <trkpt lat="45.305560" lon="14.204910">
        <ele>1025.3472</ele>
        <time>2012-05-01T04:56:33Z</time>
      </trkpt>
      <trkpt lat="45.305520" lon="14.204870">
        <ele>1025.3472</ele>
        <time>2012-05-01T04:56:37Z</time>
      </trkpt>
      <trkpt lat="45.305480" lon="14.204830">
        <ele>1025.652</ele>
        <time>2012-05-01T04:56:41Z</time>
      </trkpt>
      <trkpt lat="45.305440" lon="14.204800">
        <ele>1025.9568</ele>
        <time>2012-05-01T04:56:45Z</time>
      </trkpt>
      <trkpt lat="45.305400" lon="14.204750">
        <ele>1026.5664</ele>
        <time>2012-05-01T04:56:50Z</time>
      </trkpt>
      <trkpt lat="45.305360" lon="14.204710">
        <ele>1026.5664</ele>
        <time>2012-05-01T04:56:54Z</time>
      </trkpt>
      <trkpt lat="45.305320" lon="14.204670">
        <ele>1025.0424</ele>
        <time>2012-05-01T04:56:58Z</time>
      </trkpt>
      <trkpt lat="45.305270" lon="14.204630">
        <ele>1025.9568</ele>
        <time>2012-05-01T04:57:02Z</time>
      </trkpt>
      <trkpt lat="45.305240" lon="14.204560">
        <ele>1027.7856</ele>
        <time>2012-05-01T04:57:09Z</time>
      </trkpt>
      <trkpt lat="45.305220" lon="14.204500">
        <ele>1028.3952</ele>
        <time>2012-05-01T04:57:13Z</time>
      </trkpt>
      <trkpt lat="45.305180" lon="14.204440">
        <ele>1029.3096</ele>
        <time>2012-05-01T04:57:18Z</time>
      </trkpt>
      <trkpt lat="45.305160" lon="14.204360">
        <ele>1028.7</ele>
        <time>2012-05-01T04:57:21Z</time>
      </trkpt>
      <trkpt lat="45.305110" lon="14.204350">
        <ele>1027.4808</ele>
        <time>2012-05-01T04:57:25Z</time>
      </trkpt>
      <trkpt lat="45.305060" lon="14.204320">
        <ele>1027.4808</ele>
        <time>2012-05-01T04:57:28Z</time>
      </trkpt>
      <trkpt lat="45.305020" lon="14.204280">
        <ele>1027.4808</ele>
        <time>2012-05-01T04:57:32Z</time>
      </trkpt>
      <trkpt lat="45.304980" lon="14.204230">
        <ele>1027.176</ele>
        <time>2012-05-01T04:57:37Z</time>
      </trkpt>
      <trkpt lat="45.304940" lon="14.204170">
        <ele>1027.176</ele>
        <time>2012-05-01T04:57:43Z</time>
      </trkpt>
      <trkpt lat="45.304920" lon="14.204090">
        <ele>1027.176</ele>
        <time>2012-05-01T04:57:47Z</time>
      </trkpt>
      <trkpt lat="45.304900" lon="14.204030">
        <ele>1029.0048</ele>
        <time>2012-05-01T04:57:52Z</time>
      </trkpt>
      <trkpt lat="45.304850" lon="14.204000">
        <ele>1028.0904</ele>
        <time>2012-05-01T04:57:55Z</time>
      </trkpt>
      <trkpt lat="45.304810" lon="14.203960">
        <ele>1027.4808</ele>
        <time>2012-05-01T04:57:59Z</time>
      </trkpt>
      <trkpt lat="45.304790" lon="14.203890">
        <ele>1028.7</ele>
        <time>2012-05-01T04:58:03Z</time>
      </trkpt>
      <trkpt lat="45.304750" lon="14.203840">
        <ele>1028.0904</ele>
        <time>2012-05-01T04:58:07Z</time>
      </trkpt>
      <trkpt lat="45.304780" lon="14.203790">
        <ele>1033.272</ele>
        <time>2012-05-01T04:58:11Z</time>
      </trkpt>
      <trkpt lat="45.304730" lon="14.203750">
        <ele>1032.3576</ele>
        <time>2012-05-01T04:58:15Z</time>
      </trkpt>
      <trkpt lat="45.304680" lon="14.203760">
        <ele>1031.748</ele>
        <time>2012-05-01T04:58:18Z</time>
      </trkpt>
      <trkpt lat="45.304640" lon="14.203760">
        <ele>1030.5288</ele>
        <time>2012-05-01T04:58:22Z</time>
      </trkpt>
      <trkpt lat="45.304600" lon="14.203720">
        <ele>1032.6624</ele>
        <time>2012-05-01T04:58:30Z</time>
      </trkpt>
      <trkpt lat="45.304600" lon="14.203650">
        <ele>1032.6624</ele>
        <time>2012-05-01T04:58:33Z</time>
      </trkpt>
      <trkpt lat="45.304610" lon="14.203590">
        <ele>1032.9672</ele>
        <time>2012-05-01T04:58:37Z</time>
      </trkpt>
      <trkpt lat="45.304630" lon="14.203520">
        <ele>1032.3576</ele>
        <time>2012-05-01T04:58:39Z</time>
      </trkpt>
      <trkpt lat="45.304580" lon="14.203450">
        <ele>1030.8336</ele>
        <time>2012-05-01T04:58:49Z</time>
      </trkpt>
      <trkpt lat="45.304520" lon="14.203380">
        <ele>1029.3096</ele>
        <time>2012-05-01T04:58:57Z</time>
      </trkpt>
      <trkpt lat="45.304470" lon="14.203360">
        <ele>1026.5664</ele>
        <time>2012-05-01T04:58:58Z</time>
      </trkpt>
      <trkpt lat="45.304420" lon="14.203310">
        <ele>1027.176</ele>
        <time>2012-05-01T04:59:06Z</time>
      </trkpt>
      <trkpt lat="45.304350" lon="14.203260">
        <ele>1026.5664</ele>
        <time>2012-05-01T04:59:13Z</time>
      </trkpt>
      <trkpt lat="45.304310" lon="14.203230">
        <ele>1025.0424</ele>
        <time>2012-05-01T04:59:13Z</time>
      </trkpt>
      <trkpt lat="45.304250" lon="14.203200">
        <ele>1020.7752</ele>
        <time>2012-05-01T04:59:17Z</time>
      </trkpt>
      <trkpt lat="45.304210" lon="14.203140">
        <ele>1018.6416</ele>
        <time>2012-05-01T04:59:28Z</time>
      </trkpt>
      <trkpt lat="45.304180" lon="14.203080">
        <ele>1017.7272</ele>
        <time>2012-05-01T04:59:36Z</time>
      </trkpt>
      <trkpt lat="45.304160" lon="14.203000">
        <ele>1012.5456</ele>
        <time>2012-05-01T04:59:43Z</time>
      </trkpt>
      <trkpt lat="45.304140" lon="14.202920">
        <ele>1012.8504</ele>
        <time>2012-05-01T04:59:44Z</time>
      </trkpt>
      <trkpt lat="45.304100" lon="14.202880">
        <ele>1013.7648</ele>
        <time>2012-05-01T04:59:46Z</time>
      </trkpt>
      <trkpt lat="45.304060" lon="14.202780">
        <ele>1016.2032</ele>
        <time>2012-05-01T04:59:48Z</time>
      </trkpt>
      <trkpt lat="45.304040" lon="14.202710">
        <ele>1020.1656</ele>
        <time>2012-05-01T04:59:55Z</time>
      </trkpt>
      <trkpt lat="45.304000" lon="14.202650">
        <ele>1022.2992</ele>
        <time>2012-05-01T04:59:59Z</time>
      </trkpt>
      <trkpt lat="45.303970" lon="14.202590">
        <ele>1023.2136</ele>
        <time>2012-05-01T05:00:03Z</time>
      </trkpt>
      <trkpt lat="45.303940" lon="14.202540">
        <ele>1023.2136</ele>
        <time>2012-05-01T05:00:07Z</time>
      </trkpt>
      <trkpt lat="45.303910" lon="14.202480">
        <ele>1024.128</ele>
        <time>2012-05-01T05:00:13Z</time>
      </trkpt>
      <trkpt lat="45.303870" lon="14.202430">
        <ele>1024.4328</ele>
        <time>2012-05-01T05:00:18Z</time>
      </trkpt>
      <trkpt lat="45.303820" lon="14.202380">
        <ele>1022.2992</ele>
        <time>2012-05-01T05:00:22Z</time>
      </trkpt>
      <trkpt lat="45.303790" lon="14.202330">
        <ele>1022.9088</ele>
        <time>2012-05-01T05:00:26Z</time>
      </trkpt>
      <trkpt lat="45.303770" lon="14.202270">
        <ele>1022.9088</ele>
        <time>2012-05-01T05:00:32Z</time>
      </trkpt>
      <trkpt lat="45.303720" lon="14.202240">
        <ele>1021.08</ele>
        <time>2012-05-01T05:00:34Z</time>
      </trkpt>
      <trkpt lat="45.303680" lon="14.202200">
        <ele>1021.3848</ele>
        <time>2012-05-01T05:00:38Z</time>
      </trkpt>
      <trkpt lat="45.303640" lon="14.202170">
        <ele>1019.8608</ele>
        <time>2012-05-01T05:00:41Z</time>
      </trkpt>
      <trkpt lat="45.303590" lon="14.202130">
        <ele>1019.2512</ele>
        <time>2012-05-01T05:00:45Z</time>
      </trkpt>
      <trkpt lat="45.303550" lon="14.202090">
        <ele>1018.9464</ele>
        <time>2012-05-01T05:00:48Z</time>
      </trkpt>
      <trkpt lat="45.303490" lon="14.202060">
        <ele>1018.6416</ele>
        <time>2012-05-01T05:00:52Z</time>
      </trkpt>
      <trkpt lat="45.303440" lon="14.202010">
        <ele>1018.6416</ele>
        <time>2012-05-01T05:00:53Z</time>
      </trkpt>
      <trkpt lat="45.303390" lon="14.202050">
        <ele>1014.3744</ele>
        <time>2012-05-01T05:01:00Z</time>
      </trkpt>
      <trkpt lat="45.303370" lon="14.201980">
        <ele>1018.6416</ele>
        <time>2012-05-01T05:01:05Z</time>
      </trkpt>
      <trkpt lat="45.303330" lon="14.201950">
        <ele>1018.3368</ele>
        <time>2012-05-01T05:01:08Z</time>
      </trkpt>
      <trkpt lat="45.303290" lon="14.201910">
        <ele>1015.5936</ele>
        <time>2012-05-01T05:01:13Z</time>
      </trkpt>
      <trkpt lat="45.303260" lon="14.201850">
        <ele>1014.984</ele>
        <time>2012-05-01T05:01:26Z</time>
      </trkpt>
      <trkpt lat="45.303260" lon="14.201780">
        <ele>1018.6416</ele>
        <time>2012-05-01T05:01:31Z</time>
      </trkpt>
      <trkpt lat="45.303240" lon="14.201720">
        <ele>1018.6416</ele>
        <time>2012-05-01T05:01:35Z</time>
      </trkpt>
      <trkpt lat="45.303230" lon="14.201640">
        <ele>1018.3368</ele>
        <time>2012-05-01T05:01:39Z</time>
      </trkpt>
      <trkpt lat="45.303180" lon="14.201640">
        <ele>1017.1176</ele>
        <time>2012-05-01T05:01:50Z</time>
      </trkpt>
      <trkpt lat="45.303130" lon="14.201650">
        <ele>1018.032</ele>
        <time>2012-05-01T05:01:55Z</time>
      </trkpt>
      <trkpt lat="45.303080" lon="14.201680">
        <ele>1018.9464</ele>
        <time>2012-05-01T05:01:59Z</time>
      </trkpt>
      <trkpt lat="45.303030" lon="14.201700">
        <ele>1019.2512</ele>
        <time>2012-05-01T05:02:03Z</time>
      </trkpt>
      <trkpt lat="45.302980" lon="14.201710">
        <ele>1019.8608</ele>
        <time>2012-05-01T05:02:09Z</time>
      </trkpt>
      <trkpt lat="45.302920" lon="14.201710">
        <ele>1021.6896</ele>
        <time>2012-05-01T05:02:14Z</time>
      </trkpt>
      <trkpt lat="45.302870" lon="14.201720">
        <ele>1020.1656</ele>
        <time>2012-05-01T05:02:18Z</time>
      </trkpt>
      <trkpt lat="45.302820" lon="14.201700">
        <ele>1020.1656</ele>
        <time>2012-05-01T05:02:25Z</time>
      </trkpt>
      <trkpt lat="45.302780" lon="14.201650">
        <ele>1023.2136</ele>
        <time>2012-05-01T05:02:33Z</time>
      </trkpt>
      <trkpt lat="45.302740" lon="14.201600">
        <ele>1024.7376</ele>
        <time>2012-05-01T05:02:37Z</time>
      </trkpt>
      <trkpt lat="45.302690" lon="14.201590">
        <ele>1021.9944</ele>
        <time>2012-05-01T05:02:40Z</time>
      </trkpt>
      <trkpt lat="45.302670" lon="14.201530">
        <ele>1025.0424</ele>
        <time>2012-05-01T05:02:47Z</time>
      </trkpt>
      <trkpt lat="45.302620" lon="14.201500">
        <ele>1026.2616</ele>
        <time>2012-05-01T05:02:51Z</time>
      </trkpt>
      <trkpt lat="45.302590" lon="14.201450">
        <ele>1025.652</ele>
        <time>2012-05-01T05:02:53Z</time>
      </trkpt>
      <trkpt lat="45.302550" lon="14.201390">
        <ele>1027.7856</ele>
        <time>2012-05-01T05:02:59Z</time>
      </trkpt>
      <trkpt lat="45.302510" lon="14.201360">
        <ele>1031.1384</ele>
        <time>2012-05-01T05:03:04Z</time>
      </trkpt>
      <trkpt lat="45.302480" lon="14.201300">
        <ele>1036.32</ele>
        <time>2012-05-01T05:03:11Z</time>
      </trkpt>
      <trkpt lat="45.302440" lon="14.201270">
        <ele>1038.7584</ele>
        <time>2012-05-01T05:03:16Z</time>
      </trkpt>
      <trkpt lat="45.302390" lon="14.201220">
        <ele>1043.3304</ele>
        <time>2012-05-01T05:03:23Z</time>
      </trkpt>
      <trkpt lat="45.302350" lon="14.201170">
        <ele>1046.3784</ele>
        <time>2012-05-01T05:03:31Z</time>
      </trkpt>
      <trkpt lat="45.302310" lon="14.201150">
        <ele>1051.2552</ele>
        <time>2012-05-01T05:03:35Z</time>
      </trkpt>
      <trkpt lat="45.302260" lon="14.201140">
        <ele>1053.6936</ele>
        <time>2012-05-01T05:03:39Z</time>
      </trkpt>
      <trkpt lat="45.302210" lon="14.201130">
        <ele>1057.656</ele>
        <time>2012-05-01T05:03:46Z</time>
      </trkpt>
      <trkpt lat="45.302160" lon="14.201160">
        <ele>1060.3992</ele>
        <time>2012-05-01T05:03:51Z</time>
      </trkpt>
      <trkpt lat="45.302100" lon="14.201160">
        <ele>1065.8856</ele>
        <time>2012-05-01T05:03:58Z</time>
      </trkpt>
      <trkpt lat="45.302050" lon="14.201150">
        <ele>1066.8</ele>
        <time>2012-05-01T05:04:02Z</time>
      </trkpt>
      <trkpt lat="45.302000" lon="14.201180">
        <ele>1064.3616</ele>
        <time>2012-05-01T05:04:06Z</time>
      </trkpt>
      <trkpt lat="45.301950" lon="14.201170">
        <ele>1065.276</ele>
        <time>2012-05-01T05:04:10Z</time>
      </trkpt>
      <trkpt lat="45.301890" lon="14.201190">
        <ele>1068.9336</ele>
        <time>2012-05-01T05:04:16Z</time>
      </trkpt>
      <trkpt lat="45.301840" lon="14.201200">
        <ele>1073.5056</ele>
        <time>2012-05-01T05:04:21Z</time>
      </trkpt>
      <trkpt lat="45.301780" lon="14.201230">
        <ele>1074.42</ele>
        <time>2012-05-01T05:04:25Z</time>
      </trkpt>
      <trkpt lat="45.301730" lon="14.201230">
        <ele>1076.2488</ele>
        <time>2012-05-01T05:04:29Z</time>
      </trkpt>
      <trkpt lat="45.301680" lon="14.201240">
        <ele>1075.6392</ele>
        <time>2012-05-01T05:04:35Z</time>
      </trkpt>
      <trkpt lat="45.301630" lon="14.201260">
        <ele>1076.8584</ele>
        <time>2012-05-01T05:04:40Z</time>
      </trkpt>
      <trkpt lat="45.301580" lon="14.201250">
        <ele>1077.1632</ele>
        <time>2012-05-01T05:04:45Z</time>
      </trkpt>
      <trkpt lat="45.301530" lon="14.201230">
        <ele>1078.992</ele>
        <time>2012-05-01T05:04:52Z</time>
      </trkpt>
      <trkpt lat="45.301480" lon="14.201230">
        <ele>1081.1256</ele>
        <time>2012-05-01T05:05:00Z</time>
      </trkpt>
      <trkpt lat="45.301440" lon="14.201190">
        <ele>1083.2592</ele>
        <time>2012-05-01T05:05:06Z</time>
      </trkpt>
      <trkpt lat="45.301400" lon="14.201160">
        <ele>1086.3072</ele>
        <time>2012-05-01T05:05:11Z</time>
      </trkpt>
      <trkpt lat="45.301340" lon="14.201130">
        <ele>1088.7456</ele>
        <time>2012-05-01T05:05:19Z</time>
      </trkpt>
      <trkpt lat="45.301280" lon="14.201140">
        <ele>1088.7456</ele>
        <time>2012-05-01T05:05:27Z</time>
      </trkpt>
      <trkpt lat="45.301230" lon="14.201160">
        <ele>1086.612</ele>
        <time>2012-05-01T05:05:34Z</time>
      </trkpt>
      <trkpt lat="45.301180" lon="14.201170">
        <ele>1084.4784</ele>
        <time>2012-05-01T05:05:38Z</time>
      </trkpt>
      <trkpt lat="45.301130" lon="14.201130">
        <ele>1085.088</ele>
        <time>2012-05-01T05:05:39Z</time>
      </trkpt>
      <trkpt lat="45.301090" lon="14.201120">
        <ele>1085.3928</ele>
        <time>2012-05-01T05:05:42Z</time>
      </trkpt>
      <trkpt lat="45.301040" lon="14.201100">
        <ele>1085.6976</ele>
        <time>2012-05-01T05:05:46Z</time>
      </trkpt>
      <trkpt lat="45.300970" lon="14.201080">
        <ele>1081.7352</ele>
        <time>2012-05-01T05:05:54Z</time>
      </trkpt>
      <trkpt lat="45.300900" lon="14.201060">
        <ele>1079.6016</ele>
        <time>2012-05-01T05:06:01Z</time>
      </trkpt>
      <trkpt lat="45.300850" lon="14.201060">
        <ele>1078.0776</ele>
        <time>2012-05-01T05:06:08Z</time>
      </trkpt>
      <trkpt lat="45.300810" lon="14.201020">
        <ele>1078.0776</ele>
        <time>2012-05-01T05:06:09Z</time>
      </trkpt>
      <trkpt lat="45.300750" lon="14.201030">
        <ele>1071.372</ele>
        <time>2012-05-01T05:06:21Z</time>
      </trkpt>
      <trkpt lat="45.300720" lon="14.200970">
        <ele>1071.9816</ele>
        <time>2012-05-01T05:06:25Z</time>
      </trkpt>
      <trkpt lat="45.300680" lon="14.200910">
        <ele>1074.42</ele>
        <time>2012-05-01T05:06:31Z</time>
      </trkpt>
      <trkpt lat="45.300640" lon="14.200860">
        <ele>1075.3344</ele>
        <time>2012-05-01T05:06:33Z</time>
      </trkpt>
      <trkpt lat="45.300600" lon="14.200830">
        <ele>1077.1632</ele>
        <time>2012-05-01T05:06:41Z</time>
      </trkpt>
      <trkpt lat="45.300550" lon="14.200840">
        <ele>1076.8584</ele>
        <time>2012-05-01T05:06:48Z</time>
      </trkpt>
      <trkpt lat="45.300500" lon="14.200820">
        <ele>1079.9064</ele>
        <time>2012-05-01T05:06:52Z</time>
      </trkpt>
      <trkpt lat="45.300450" lon="14.200810">
        <ele>1078.6872</ele>
        <time>2012-05-01T05:07:03Z</time>
      </trkpt>
      <trkpt lat="45.300410" lon="14.200760">
        <ele>1081.4304</ele>
        <time>2012-05-01T05:07:11Z</time>
      </trkpt>
      <trkpt lat="45.300360" lon="14.200740">
        <ele>1083.564</ele>
        <time>2012-05-01T05:07:22Z</time>
      </trkpt>
      <trkpt lat="45.300300" lon="14.200750">
        <ele>1082.6496</ele>
        <time>2012-05-01T05:07:25Z</time>
      </trkpt>
      <trkpt lat="45.300260" lon="14.200740">
        <ele>1082.6496</ele>
        <time>2012-05-01T05:07:31Z</time>
      </trkpt>
      <trkpt lat="45.300210" lon="14.200710">
        <ele>1083.2592</ele>
        <time>2012-05-01T05:07:38Z</time>
      </trkpt>
      <trkpt lat="45.300180" lon="14.200660">
        <ele>1085.3928</ele>
        <time>2012-05-01T05:07:42Z</time>
      </trkpt>
      <trkpt lat="45.300100" lon="14.200610">
        <ele>1086.9168</ele>
        <time>2012-05-01T05:07:53Z</time>
      </trkpt>
      <trkpt lat="45.300080" lon="14.200530">
        <ele>1092.4032</ele>
        <time>2012-05-01T05:07:57Z</time>
      </trkpt>
      <trkpt lat="45.300030" lon="14.200520">
        <ele>1092.0984</ele>
        <time>2012-05-01T05:08:01Z</time>
      </trkpt>
      <trkpt lat="45.300010" lon="14.200460">
        <ele>1092.4032</ele>
        <time>2012-05-01T05:08:09Z</time>
      </trkpt>
      <trkpt lat="45.299980" lon="14.200390">
        <ele>1095.4512</ele>
        <time>2012-05-01T05:08:15Z</time>
      </trkpt>
      <trkpt lat="45.299920" lon="14.200360">
        <ele>1095.1464</ele>
        <time>2012-05-01T05:08:16Z</time>
      </trkpt>
      <trkpt lat="45.299870" lon="14.200360">
        <ele>1093.6224</ele>
        <time>2012-05-01T05:08:24Z</time>
      </trkpt>
      <trkpt lat="45.299830" lon="14.200270">
        <ele>1094.8416</ele>
        <time>2012-05-01T05:08:28Z</time>
      </trkpt>
      <trkpt lat="45.299800" lon="14.200200">
        <ele>1097.8896</ele>
        <time>2012-05-01T05:08:32Z</time>
      </trkpt>
      <trkpt lat="45.299750" lon="14.200180">
        <ele>1096.0608</ele>
        <time>2012-05-01T05:08:36Z</time>
      </trkpt>
      <trkpt lat="45.299700" lon="14.200170">
        <ele>1095.4512</ele>
        <time>2012-05-01T05:08:39Z</time>
      </trkpt>
      <trkpt lat="45.299630" lon="14.200070">
        <ele>1095.756</ele>
        <time>2012-05-01T05:08:40Z</time>
      </trkpt>
      <trkpt lat="45.299590" lon="14.200020">
        <ele>1095.1464</ele>
        <time>2012-05-01T05:08:43Z</time>
      </trkpt>
      <trkpt lat="45.299550" lon="14.199950">
        <ele>1095.756</ele>
        <time>2012-05-01T05:08:52Z</time>
      </trkpt>
      <trkpt lat="45.299540" lon="14.199880">
        <ele>1098.4992</ele>
        <time>2012-05-01T05:08:58Z</time>
      </trkpt>
      <trkpt lat="45.299500" lon="14.199840">
        <ele>1097.5848</ele>
        <time>2012-05-01T05:09:00Z</time>
      </trkpt>
      <trkpt lat="45.299480" lon="14.199770">
        <ele>1093.0128</ele>
        <time>2012-05-01T05:09:06Z</time>
      </trkpt>
      <trkpt lat="45.299390" lon="14.199630">
        <ele>1093.3176</ele>
        <time>2012-05-01T05:09:10Z</time>
      </trkpt>
      <trkpt lat="45.299350" lon="14.199580">
        <ele>1096.3656</ele>
        <time>2012-05-01T05:09:17Z</time>
      </trkpt>
      <trkpt lat="45.299320" lon="14.199530">
        <ele>1100.6328</ele>
        <time>2012-05-01T05:09:21Z</time>
      </trkpt>
      <trkpt lat="45.299280" lon="14.199480">
        <ele>1101.852</ele>
        <time>2012-05-01T05:09:26Z</time>
      </trkpt>
      <trkpt lat="45.299220" lon="14.199440">
        <ele>1102.4616</ele>
        <time>2012-05-01T05:09:36Z</time>
      </trkpt>
      <trkpt lat="45.299190" lon="14.199400">
        <ele>1108.5576</ele>
        <time>2012-05-01T05:09:46Z</time>
      </trkpt>
      <trkpt lat="45.299140" lon="14.199380">
        <ele>1110.6912</ele>
        <time>2012-05-01T05:09:52Z</time>
      </trkpt>
      <trkpt lat="45.299090" lon="14.199350">
        <ele>1110.996</ele>
        <time>2012-05-01T05:09:57Z</time>
      </trkpt>
      <trkpt lat="45.299030" lon="14.199340">
        <ele>1110.3864</ele>
        <time>2012-05-01T05:10:04Z</time>
      </trkpt>
      <trkpt lat="45.298980" lon="14.199330">
        <ele>1110.996</ele>
        <time>2012-05-01T05:10:11Z</time>
      </trkpt>
      <trkpt lat="45.298950" lon="14.199270">
        <ele>1114.9584</ele>
        <time>2012-05-01T05:10:15Z</time>
      </trkpt>
      <trkpt lat="45.298910" lon="14.199240">
        <ele>1114.044</ele>
        <time>2012-05-01T05:10:19Z</time>
      </trkpt>
      <trkpt lat="45.298870" lon="14.199200">
        <ele>1115.8728</ele>
        <time>2012-05-01T05:10:24Z</time>
      </trkpt>
      <trkpt lat="45.298840" lon="14.199140">
        <ele>1123.188</ele>
        <time>2012-05-01T05:10:31Z</time>
      </trkpt>
      <trkpt lat="45.298800" lon="14.199100">
        <ele>1126.8456</ele>
        <time>2012-05-01T05:10:39Z</time>
      </trkpt>
      <trkpt lat="45.298760" lon="14.199040">
        <ele>1132.0272</ele>
        <time>2012-05-01T05:10:47Z</time>
      </trkpt>
      <trkpt lat="45.298730" lon="14.199000">
        <ele>1134.7704</ele>
        <time>2012-05-01T05:10:54Z</time>
      </trkpt>
      <trkpt lat="45.298670" lon="14.198980">
        <ele>1140.2568</ele>
        <time>2012-05-01T05:11:02Z</time>
      </trkpt>
      <trkpt lat="45.298590" lon="14.198960">
        <ele>1142.0856</ele>
        <time>2012-05-01T05:11:07Z</time>
      </trkpt>
      <trkpt lat="45.298540" lon="14.198940">
        <ele>1144.524</ele>
        <time>2012-05-01T05:11:13Z</time>
      </trkpt>
      <trkpt lat="45.298480" lon="14.198920">
        <ele>1146.6576</ele>
        <time>2012-05-01T05:11:21Z</time>
      </trkpt>
      <trkpt lat="45.298440" lon="14.198930">
        <ele>1146.6576</ele>
        <time>2012-05-01T05:11:24Z</time>
      </trkpt>
      <trkpt lat="45.298370" lon="14.198960">
        <ele>1145.7432</ele>
        <time>2012-05-01T05:11:29Z</time>
      </trkpt>
      <trkpt lat="45.298340" lon="14.198900">
        <ele>1144.524</ele>
        <time>2012-05-01T05:11:30Z</time>
      </trkpt>
      <trkpt lat="45.298270" lon="14.198890">
        <ele>1143.3048</ele>
        <time>2012-05-01T05:11:33Z</time>
      </trkpt>
      <trkpt lat="45.298190" lon="14.198890">
        <ele>1141.1712</ele>
        <time>2012-05-01T05:11:37Z</time>
      </trkpt>
      <trkpt lat="45.298150" lon="14.198960">
        <ele>1139.952</ele>
        <time>2012-05-01T05:11:42Z</time>
      </trkpt>
      <trkpt lat="45.298100" lon="14.198970">
        <ele>1139.0376</ele>
        <time>2012-05-01T05:11:44Z</time>
      </trkpt>
      <trkpt lat="45.298060" lon="14.199020">
        <ele>1137.2088</ele>
        <time>2012-05-01T05:11:49Z</time>
      </trkpt>
      <trkpt lat="45.298010" lon="14.199050">
        <ele>1135.6848</ele>
        <time>2012-05-01T05:11:52Z</time>
      </trkpt>
      <trkpt lat="45.297950" lon="14.199070">
        <ele>1133.2464</ele>
        <time>2012-05-01T05:12:00Z</time>
      </trkpt>
      <trkpt lat="45.297890" lon="14.199080">
        <ele>1132.9416</ele>
        <time>2012-05-01T05:12:03Z</time>
      </trkpt>
      <trkpt lat="45.297820" lon="14.199130">
        <ele>1132.9416</ele>
        <time>2012-05-01T05:12:05Z</time>
      </trkpt>
      <trkpt lat="45.297770" lon="14.199160">
        <ele>1132.332</ele>
        <time>2012-05-01T05:12:12Z</time>
      </trkpt>
      <trkpt lat="45.297720" lon="14.199120">
        <ele>1132.332</ele>
        <time>2012-05-01T05:12:16Z</time>
      </trkpt>
      <trkpt lat="45.297750" lon="14.199170">
        <ele>1132.9416</ele>
        <time>2012-05-01T05:12:19Z</time>
      </trkpt>
      <trkpt lat="45.297670" lon="14.199200">
        <ele>1133.5512</ele>
        <time>2012-05-01T05:12:24Z</time>
      </trkpt>
      <trkpt lat="45.297620" lon="14.199210">
        <ele>1133.856</ele>
        <time>2012-05-01T05:12:27Z</time>
      </trkpt>
      <trkpt lat="45.297610" lon="14.199280">
        <ele>1136.5992</ele>
        <time>2012-05-01T05:12:35Z</time>
      </trkpt>
      <trkpt lat="45.297540" lon="14.199250">
        <ele>1137.2088</ele>
        <time>2012-05-01T05:12:39Z</time>
      </trkpt>
      <trkpt lat="45.297490" lon="14.199260">
        <ele>1139.0376</ele>
        <time>2012-05-01T05:12:49Z</time>
      </trkpt>
      <trkpt lat="45.297440" lon="14.199240">
        <ele>1141.1712</ele>
        <time>2012-05-01T05:12:53Z</time>
      </trkpt>
      <trkpt lat="45.297380" lon="14.199280">
        <ele>1145.7432</ele>
        <time>2012-05-01T05:13:01Z</time>
      </trkpt>
      <trkpt lat="45.297340" lon="14.199250">
        <ele>1151.2296</ele>
        <time>2012-05-01T05:13:06Z</time>
      </trkpt>
      <trkpt lat="45.297290" lon="14.199280">
        <ele>1153.9728</ele>
        <time>2012-05-01T05:13:10Z</time>
      </trkpt>
      <trkpt lat="45.297240" lon="14.199290">
        <ele>1157.0208</ele>
        <time>2012-05-01T05:13:17Z</time>
      </trkpt>
      <trkpt lat="45.297190" lon="14.199300">
        <ele>1162.5072</ele>
        <time>2012-05-01T05:13:25Z</time>
      </trkpt>
      <trkpt lat="45.297140" lon="14.199320">
        <ele>1162.5072</ele>
        <time>2012-05-01T05:13:28Z</time>
      </trkpt>
      <trkpt lat="45.297090" lon="14.199320">
        <ele>1166.7744</ele>
        <time>2012-05-01T05:13:36Z</time>
      </trkpt>
      <trkpt lat="45.297030" lon="14.199320">
        <ele>1169.8224</ele>
        <time>2012-05-01T05:13:40Z</time>
      </trkpt>
      <trkpt lat="45.296980" lon="14.199340">
        <ele>1172.2608</ele>
        <time>2012-05-01T05:13:45Z</time>
      </trkpt>
      <trkpt lat="45.296920" lon="14.199380">
        <ele>1170.432</ele>
        <time>2012-05-01T05:13:48Z</time>
      </trkpt>
      <trkpt lat="45.296870" lon="14.199420">
        <ele>1169.8224</ele>
        <time>2012-05-01T05:13:52Z</time>
      </trkpt>
      <trkpt lat="45.296810" lon="14.199430">
        <ele>1174.6992</ele>
        <time>2012-05-01T05:13:56Z</time>
      </trkpt>
      <trkpt lat="45.296760" lon="14.199430">
        <ele>1172.2608</ele>
        <time>2012-05-01T05:13:59Z</time>
      </trkpt>
      <trkpt lat="45.296700" lon="14.199430">
        <ele>1171.956</ele>
        <time>2012-05-01T05:14:03Z</time>
      </trkpt>
      <trkpt lat="45.296660" lon="14.199440">
        <ele>1167.9936</ele>
        <time>2012-05-01T05:14:06Z</time>
      </trkpt>
      <trkpt lat="45.296610" lon="14.199450">
        <ele>1168.908</ele>
        <time>2012-05-01T05:14:10Z</time>
      </trkpt>
      <trkpt lat="45.296560" lon="14.199450">
        <ele>1168.908</ele>
        <time>2012-05-01T05:14:11Z</time>
      </trkpt>
      <trkpt lat="45.296520" lon="14.199450">
        <ele>1169.5176</ele>
        <time>2012-05-01T05:14:15Z</time>
      </trkpt>
      <trkpt lat="45.296470" lon="14.199460">
        <ele>1168.2984</ele>
        <time>2012-05-01T05:14:16Z</time>
      </trkpt>
      <trkpt lat="45.296420" lon="14.199470">
        <ele>1165.5552</ele>
        <time>2012-05-01T05:14:19Z</time>
      </trkpt>
      <trkpt lat="45.296370" lon="14.199440">
        <ele>1165.86</ele>
        <time>2012-05-01T05:14:22Z</time>
      </trkpt>
      <trkpt lat="45.296310" lon="14.199430">
        <ele>1164.336</ele>
        <time>2012-05-01T05:14:23Z</time>
      </trkpt>
      <trkpt lat="45.296260" lon="14.199430">
        <ele>1162.812</ele>
        <time>2012-05-01T05:14:27Z</time>
      </trkpt>
      <trkpt lat="45.296180" lon="14.199420">
        <ele>1160.6784</ele>
        <time>2012-05-01T05:14:31Z</time>
      </trkpt>
      <trkpt lat="45.296130" lon="14.199440">
        <ele>1171.6512</ele>
        <time>2012-05-01T05:14:46Z</time>
      </trkpt>
      <trkpt lat="45.296080" lon="14.199450">
        <ele>1171.0416</ele>
        <time>2012-05-01T05:14:49Z</time>
      </trkpt>
      <trkpt lat="45.296020" lon="14.199440">
        <ele>1170.7368</ele>
        <time>2012-05-01T05:14:53Z</time>
      </trkpt>
      <trkpt lat="45.295980" lon="14.199480">
        <ele>1175.6136</ele>
        <time>2012-05-01T05:15:00Z</time>
      </trkpt>
      <trkpt lat="45.295930" lon="14.199470">
        <ele>1177.7472</ele>
        <time>2012-05-01T05:15:05Z</time>
      </trkpt>
      <trkpt lat="45.295880" lon="14.199440">
        <ele>1178.052</ele>
        <time>2012-05-01T05:15:09Z</time>
      </trkpt>
      <trkpt lat="45.295840" lon="14.199420">
        <ele>1179.2712</ele>
        <time>2012-05-01T05:15:13Z</time>
      </trkpt>
      <trkpt lat="45.295770" lon="14.199460">
        <ele>1180.4904</ele>
        <time>2012-05-01T05:15:20Z</time>
      </trkpt>
      <trkpt lat="45.295690" lon="14.199480">
        <ele>1180.4904</ele>
        <time>2012-05-01T05:15:23Z</time>
      </trkpt>
      <trkpt lat="45.295640" lon="14.199480">
        <ele>1178.052</ele>
        <time>2012-05-01T05:15:24Z</time>
      </trkpt>
      <trkpt lat="45.295600" lon="14.199510">
        <ele>1178.052</ele>
        <time>2012-05-01T05:15:27Z</time>
      </trkpt>
      <trkpt lat="45.295550" lon="14.199530">
        <ele>1178.6616</ele>
        <time>2012-05-01T05:15:31Z</time>
      </trkpt>
      <trkpt lat="45.295510" lon="14.199570">
        <ele>1176.528</ele>
        <time>2012-05-01T05:15:33Z</time>
      </trkpt>
      <trkpt lat="45.295470" lon="14.199600">
        <ele>1175.3088</ele>
        <time>2012-05-01T05:15:36Z</time>
      </trkpt>
      <trkpt lat="45.295410" lon="14.199590">
        <ele>1177.1376</ele>
        <time>2012-05-01T05:15:40Z</time>
      </trkpt>
      <trkpt lat="45.295360" lon="14.199610">
        <ele>1176.2232</ele>
        <time>2012-05-01T05:15:43Z</time>
      </trkpt>
      <trkpt lat="45.295310" lon="14.199610">
        <ele>1174.6992</ele>
        <time>2012-05-01T05:15:44Z</time>
      </trkpt>
      <trkpt lat="45.295240" lon="14.199620">
        <ele>1174.0896</ele>
        <time>2012-05-01T05:15:48Z</time>
      </trkpt>
      <trkpt lat="45.295180" lon="14.199650">
        <ele>1172.2608</ele>
        <time>2012-05-01T05:15:51Z</time>
      </trkpt>
      <trkpt lat="45.295150" lon="14.199700">
        <ele>1171.0416</ele>
        <time>2012-05-01T05:15:52Z</time>
      </trkpt>
      <trkpt lat="45.295110" lon="14.199730">
        <ele>1169.2128</ele>
        <time>2012-05-01T05:16:02Z</time>
      </trkpt>
      <trkpt lat="45.295040" lon="14.199750">
        <ele>1168.6032</ele>
        <time>2012-05-01T05:16:07Z</time>
      </trkpt>
      <trkpt lat="45.294990" lon="14.199750">
        <ele>1166.7744</ele>
        <time>2012-05-01T05:16:07Z</time>
      </trkpt>
      <trkpt lat="45.294940" lon="14.199740">
        <ele>1168.2984</ele>
        <time>2012-05-01T05:16:17Z</time>
      </trkpt>
      <trkpt lat="45.294900" lon="14.199770">
        <ele>1168.6032</ele>
        <time>2012-05-01T05:16:21Z</time>
      </trkpt>
      <trkpt lat="45.294840" lon="14.199800">
        <ele>1167.0792</ele>
        <time>2012-05-01T05:16:26Z</time>
      </trkpt>
      <trkpt lat="45.294780" lon="14.199820">
        <ele>1164.336</ele>
        <time>2012-05-01T05:16:30Z</time>
      </trkpt>
      <trkpt lat="45.294720" lon="14.199800">
        <ele>1171.3464</ele>
        <time>2012-05-01T05:16:39Z</time>
      </trkpt>
      <trkpt lat="45.294670" lon="14.199820">
        <ele>1172.5656</ele>
        <time>2012-05-01T05:16:46Z</time>
      </trkpt>
      <trkpt lat="45.294620" lon="14.199780">
        <ele>1175.6136</ele>
        <time>2012-05-01T05:16:52Z</time>
      </trkpt>
      <trkpt lat="45.294570" lon="14.199770">
        <ele>1176.8328</ele>
        <time>2012-05-01T05:16:57Z</time>
      </trkpt>
      <trkpt lat="45.294520" lon="14.199780">
        <ele>1176.528</ele>
        <time>2012-05-01T05:17:04Z</time>
      </trkpt>
      <trkpt lat="45.294460" lon="14.199760">
        <ele>1178.3568</ele>
        <time>2012-05-01T05:17:11Z</time>
      </trkpt>
      <trkpt lat="45.294410" lon="14.199720">
        <ele>1182.0144</ele>
        <time>2012-05-01T05:17:16Z</time>
      </trkpt>
      <trkpt lat="45.294350" lon="14.199710">
        <ele>1184.4528</ele>
        <time>2012-05-01T05:17:19Z</time>
      </trkpt>
      <trkpt lat="45.294270" lon="14.199680">
        <ele>1182.9288</ele>
        <time>2012-05-01T05:17:21Z</time>
      </trkpt>
      <trkpt lat="45.294220" lon="14.199710">
        <ele>1184.4528</ele>
        <time>2012-05-01T05:17:24Z</time>
      </trkpt>
      <trkpt lat="45.294160" lon="14.199720">
        <ele>1186.2816</ele>
        <time>2012-05-01T05:17:36Z</time>
      </trkpt>
      <trkpt lat="45.294110" lon="14.199720">
        <ele>1187.196</ele>
        <time>2012-05-01T05:17:38Z</time>
      </trkpt>
      <trkpt lat="45.294060" lon="14.199720">
        <ele>1187.8056</ele>
        <time>2012-05-01T05:17:42Z</time>
      </trkpt>
      <trkpt lat="45.294010" lon="14.199730">
        <ele>1187.5008</ele>
        <time>2012-05-01T05:17:43Z</time>
      </trkpt>
      <trkpt lat="45.293960" lon="14.199720">
        <ele>1189.0248</ele>
        <time>2012-05-01T05:17:50Z</time>
      </trkpt>
      <trkpt lat="45.293910" lon="14.199760">
        <ele>1187.196</ele>
        <time>2012-05-01T05:17:52Z</time>
      </trkpt>
      <trkpt lat="45.293860" lon="14.199740">
        <ele>1191.768</ele>
        <time>2012-05-01T05:17:58Z</time>
      </trkpt>
      <trkpt lat="45.293810" lon="14.199700">
        <ele>1192.9872</ele>
        <time>2012-05-01T05:18:02Z</time>
      </trkpt>
      <trkpt lat="45.293760" lon="14.199670">
        <ele>1191.1584</ele>
        <time>2012-05-01T05:18:05Z</time>
      </trkpt>
      <trkpt lat="45.293730" lon="14.199720">
        <ele>1189.0248</ele>
        <time>2012-05-01T05:18:07Z</time>
      </trkpt>
      <trkpt lat="45.293680" lon="14.199750">
        <ele>1192.6824</ele>
        <time>2012-05-01T05:18:14Z</time>
      </trkpt>
      <trkpt lat="45.293630" lon="14.199740">
        <ele>1197.864</ele>
        <time>2012-05-01T05:18:22Z</time>
      </trkpt>
      <trkpt lat="45.293580" lon="14.199730">
        <ele>1199.6928</ele>
        <time>2012-05-01T05:18:27Z</time>
      </trkpt>
      <trkpt lat="45.293530" lon="14.199750">
        <ele>1200.912</ele>
        <time>2012-05-01T05:18:34Z</time>
      </trkpt>
      <trkpt lat="45.293480" lon="14.199740">
        <ele>1198.7784</ele>
        <time>2012-05-01T05:18:37Z</time>
      </trkpt>
      <trkpt lat="45.293420" lon="14.199750">
        <ele>1200.6072</ele>
        <time>2012-05-01T05:18:45Z</time>
      </trkpt>
      <trkpt lat="45.293370" lon="14.199710">
        <ele>1203.96</ele>
        <time>2012-05-01T05:18:48Z</time>
      </trkpt>
      <trkpt lat="45.293310" lon="14.199670">
        <ele>1202.7408</ele>
        <time>2012-05-01T05:18:50Z</time>
      </trkpt>
      <trkpt lat="45.293270" lon="14.199680">
        <ele>1199.9976</ele>
        <time>2012-05-01T05:19:00Z</time>
      </trkpt>
      <trkpt lat="45.293210" lon="14.199680">
        <ele>1199.388</ele>
        <time>2012-05-01T05:19:04Z</time>
      </trkpt>
      <trkpt lat="45.293160" lon="14.199690">
        <ele>1198.4736</ele>
        <time>2012-05-01T05:19:08Z</time>
      </trkpt>
      <trkpt lat="45.293100" lon="14.199680">
        <ele>1196.34</ele>
        <time>2012-05-01T05:19:09Z</time>
      </trkpt>
      <trkpt lat="45.293040" lon="14.199700">
        <ele>1194.816</ele>
        <time>2012-05-01T05:19:12Z</time>
      </trkpt>
      <trkpt lat="45.293010" lon="14.199760">
        <ele>1191.4632</ele>
        <time>2012-05-01T05:19:15Z</time>
      </trkpt>
      <trkpt lat="45.292960" lon="14.199730">
        <ele>1189.9392</ele>
        <time>2012-05-01T05:19:23Z</time>
      </trkpt>
      <trkpt lat="45.292910" lon="14.199720">
        <ele>1189.0248</ele>
        <time>2012-05-01T05:19:24Z</time>
      </trkpt>
      <trkpt lat="45.292870" lon="14.199720">
        <ele>1191.1584</ele>
        <time>2012-05-01T05:19:28Z</time>
      </trkpt>
      <trkpt lat="45.292800" lon="14.199720">
        <ele>1190.5488</ele>
        <time>2012-05-01T05:19:34Z</time>
      </trkpt>
      <trkpt lat="45.292740" lon="14.199690">
        <ele>1193.5968</ele>
        <time>2012-05-01T05:19:39Z</time>
      </trkpt>
      <trkpt lat="45.292690" lon="14.199680">
        <ele>1193.292</ele>
        <time>2012-05-01T05:19:43Z</time>
      </trkpt>
      <trkpt lat="45.292640" lon="14.199650">
        <ele>1194.5112</ele>
        <time>2012-05-01T05:19:47Z</time>
      </trkpt>
      <trkpt lat="45.292580" lon="14.199660">
        <ele>1194.816</ele>
        <time>2012-05-01T05:19:48Z</time>
      </trkpt>
      <trkpt lat="45.292540" lon="14.199610">
        <ele>1195.4256</ele>
        <time>2012-05-01T05:19:51Z</time>
      </trkpt>
      <trkpt lat="45.292500" lon="14.199600">
        <ele>1197.2544</ele>
        <time>2012-05-01T05:19:55Z</time>
      </trkpt>
      <trkpt lat="45.292440" lon="14.199580">
        <ele>1198.1688</ele>
        <time>2012-05-01T05:20:02Z</time>
      </trkpt>
      <trkpt lat="45.292380" lon="14.199590">
        <ele>1198.1688</ele>
        <time>2012-05-01T05:20:06Z</time>
      </trkpt>
      <trkpt lat="45.292310" lon="14.199590">
        <ele>1196.6448</ele>
        <time>2012-05-01T05:20:07Z</time>
      </trkpt>
      <trkpt lat="45.292250" lon="14.199580">
        <ele>1199.388</ele>
        <time>2012-05-01T05:20:18Z</time>
      </trkpt>
      <trkpt lat="45.292200" lon="14.199580">
        <ele>1199.6928</ele>
        <time>2012-05-01T05:20:25Z</time>
      </trkpt>
      <trkpt lat="45.292140" lon="14.199560">
        <ele>1202.7408</ele>
        <time>2012-05-01T05:20:29Z</time>
      </trkpt>
      <trkpt lat="45.292100" lon="14.199560">
        <ele>1204.2648</ele>
        <time>2012-05-01T05:20:33Z</time>
      </trkpt>
      <trkpt lat="45.292050" lon="14.199550">
        <ele>1205.484</ele>
        <time>2012-05-01T05:20:37Z</time>
      </trkpt>
      <trkpt lat="45.292000" lon="14.199550">
        <ele>1207.9224</ele>
        <time>2012-05-01T05:20:41Z</time>
      </trkpt>
      <trkpt lat="45.291940" lon="14.199550">
        <ele>1209.1416</ele>
        <time>2012-05-01T05:20:45Z</time>
      </trkpt>
      <trkpt lat="45.291900" lon="14.199580">
        <ele>1208.8368</ele>
        <time>2012-05-01T05:20:49Z</time>
      </trkpt>
      <trkpt lat="45.291850" lon="14.199570">
        <ele>1213.7136</ele>
        <time>2012-05-01T05:20:56Z</time>
      </trkpt>
      <trkpt lat="45.291800" lon="14.199560">
        <ele>1216.7616</ele>
        <time>2012-05-01T05:21:00Z</time>
      </trkpt>
      <trkpt lat="45.291730" lon="14.199550">
        <ele>1215.8472</ele>
        <time>2012-05-01T05:21:04Z</time>
      </trkpt>
      <trkpt lat="45.291680" lon="14.199530">
        <ele>1222.5528</ele>
        <time>2012-05-01T05:21:11Z</time>
      </trkpt>
      <trkpt lat="45.291620" lon="14.199530">
        <ele>1229.5632</ele>
        <time>2012-05-01T05:21:15Z</time>
      </trkpt>
      <trkpt lat="45.291620" lon="14.199600">
        <ele>1229.5632</ele>
        <time>2012-05-01T05:21:23Z</time>
      </trkpt>
      <trkpt lat="45.291580" lon="14.199550">
        <ele>1228.9536</ele>
        <time>2012-05-01T05:21:26Z</time>
      </trkpt>
      <trkpt lat="45.291530" lon="14.199510">
        <ele>1228.6488</ele>
        <time>2012-05-01T05:21:27Z</time>
      </trkpt>
      <trkpt lat="45.291410" lon="14.199500">
        <ele>1227.1248</ele>
        <time>2012-05-01T05:21:28Z</time>
      </trkpt>
      <trkpt lat="45.291340" lon="14.199490">
        <ele>1226.82</ele>
        <time>2012-05-01T05:21:30Z</time>
      </trkpt>
      <trkpt lat="45.291380" lon="14.199530">
        <ele>1226.82</ele>
        <time>2012-05-01T05:21:32Z</time>
      </trkpt>
      <trkpt lat="45.291330" lon="14.199560">
        <ele>1225.6008</ele>
        <time>2012-05-01T05:21:36Z</time>
      </trkpt>
      <trkpt lat="45.291260" lon="14.199610">
        <ele>1222.5528</ele>
        <time>2012-05-01T05:21:39Z</time>
      </trkpt>
      <trkpt lat="45.291190" lon="14.199600">
        <ele>1219.8096</ele>
        <time>2012-05-01T05:21:49Z</time>
      </trkpt>
      <trkpt lat="45.291110" lon="14.199600">
        <ele>1221.0288</ele>
        <time>2012-05-01T05:21:51Z</time>
      </trkpt>
      <trkpt lat="45.291060" lon="14.199590">
        <ele>1220.4192</ele>
        <time>2012-05-01T05:21:53Z</time>
      </trkpt>
      <trkpt lat="45.291010" lon="14.199590">
        <ele>1219.5048</ele>
        <time>2012-05-01T05:21:54Z</time>
      </trkpt>
      <trkpt lat="45.290960" lon="14.199540">
        <ele>1217.9808</ele>
        <time>2012-05-01T05:21:57Z</time>
      </trkpt>
      <trkpt lat="45.291010" lon="14.199560">
        <ele>1216.4568</ele>
        <time>2012-05-01T05:22:01Z</time>
      </trkpt>
      <trkpt lat="45.291040" lon="14.199620">
        <ele>1214.0184</ele>
        <time>2012-05-01T05:22:03Z</time>
      </trkpt>
      <trkpt lat="45.291110" lon="14.199640">
        <ele>1214.9328</ele>
        <time>2012-05-01T05:22:06Z</time>
      </trkpt>
      <trkpt lat="45.291020" lon="14.199620">
        <ele>1214.628</ele>
        <time>2012-05-01T05:22:13Z</time>
      </trkpt>
      <trkpt lat="45.290940" lon="14.199590">
        <ele>1214.3232</ele>
        <time>2012-05-01T05:22:13Z</time>
      </trkpt>
      <trkpt lat="45.290840" lon="14.199600">
        <ele>1214.0184</ele>
        <time>2012-05-01T05:22:17Z</time>
      </trkpt>
      <trkpt lat="45.290750" lon="14.199610">
        <ele>1211.58</ele>
        <time>2012-05-01T05:22:18Z</time>
      </trkpt>
      <trkpt lat="45.290800" lon="14.199660">
        <ele>1209.7512</ele>
        <time>2012-05-01T05:22:22Z</time>
      </trkpt>
      <trkpt lat="45.290740" lon="14.199620">
        <ele>1210.6656</ele>
        <time>2012-05-01T05:22:29Z</time>
      </trkpt>
      <trkpt lat="45.290810" lon="14.199640">
        <ele>1210.056</ele>
        <time>2012-05-01T05:22:33Z</time>
      </trkpt>
      <trkpt lat="45.290740" lon="14.199600">
        <ele>1211.58</ele>
        <time>2012-05-01T05:22:39Z</time>
      </trkpt>
      <trkpt lat="45.290670" lon="14.199600">
        <ele>1211.8848</ele>
        <time>2012-05-01T05:22:44Z</time>
      </trkpt>
      <trkpt lat="45.290610" lon="14.199600">
        <ele>1212.1896</ele>
        <time>2012-05-01T05:22:45Z</time>
      </trkpt>
      <trkpt lat="45.290560" lon="14.199580">
        <ele>1217.3712</ele>
        <time>2012-05-01T05:22:55Z</time>
      </trkpt>
      <trkpt lat="45.290520" lon="14.199550">
        <ele>1219.2</ele>
        <time>2012-05-01T05:23:03Z</time>
      </trkpt>
      <trkpt lat="45.290470" lon="14.199540">
        <ele>1218.8952</ele>
        <time>2012-05-01T05:23:12Z</time>
      </trkpt>
      <trkpt lat="45.290400" lon="14.199480">
        <ele>1223.1624</ele>
        <time>2012-05-01T05:23:22Z</time>
      </trkpt>
      <trkpt lat="45.290330" lon="14.199480">
        <ele>1224.0768</ele>
        <time>2012-05-01T05:23:23Z</time>
      </trkpt>
      <trkpt lat="45.290270" lon="14.199470">
        <ele>1224.0768</ele>
        <time>2012-05-01T05:23:30Z</time>
      </trkpt>
      <trkpt lat="45.290200" lon="14.199450">
        <ele>1223.772</ele>
        <time>2012-05-01T05:23:35Z</time>
      </trkpt>
      <trkpt lat="45.290140" lon="14.199430">
        <ele>1223.1624</ele>
        <time>2012-05-01T05:23:38Z</time>
      </trkpt>
      <trkpt lat="45.290100" lon="14.199400">
        <ele>1225.6008</ele>
        <time>2012-05-01T05:23:46Z</time>
      </trkpt>
      <trkpt lat="45.290040" lon="14.199370">
        <ele>1226.2104</ele>
        <time>2012-05-01T05:23:50Z</time>
      </trkpt>
      <trkpt lat="45.289990" lon="14.199350">
        <ele>1225.6008</ele>
        <time>2012-05-01T05:23:56Z</time>
      </trkpt>
      <trkpt lat="45.289940" lon="14.199320">
        <ele>1225.9056</ele>
        <time>2012-05-01T05:24:02Z</time>
      </trkpt>
      <trkpt lat="45.289880" lon="14.199310">
        <ele>1226.5152</ele>
        <time>2012-05-01T05:24:05Z</time>
      </trkpt>
      <trkpt lat="45.289850" lon="14.199260">
        <ele>1229.5632</ele>
        <time>2012-05-01T05:24:09Z</time>
      </trkpt>
      <trkpt lat="45.289720" lon="14.199250">
        <ele>1225.296</ele>
        <time>2012-05-01T05:24:09Z</time>
      </trkpt>
      <trkpt lat="45.289670" lon="14.199250">
        <ele>1223.4672</ele>
        <time>2012-05-01T05:24:10Z</time>
      </trkpt>
      <trkpt lat="45.289620" lon="14.199240">
        <ele>1228.0392</ele>
        <time>2012-05-01T05:24:16Z</time>
      </trkpt>
      <trkpt lat="45.289580" lon="14.199210">
        <ele>1232.0016</ele>
        <time>2012-05-01T05:24:21Z</time>
      </trkpt>
      <trkpt lat="45.289530" lon="14.199220">
        <ele>1232.916</ele>
        <time>2012-05-01T05:24:32Z</time>
      </trkpt>
      <trkpt lat="45.289470" lon="14.199220">
        <ele>1234.1352</ele>
        <time>2012-05-01T05:24:37Z</time>
      </trkpt>
      <trkpt lat="45.289420" lon="14.199210">
        <ele>1235.3544</ele>
        <time>2012-05-01T05:24:40Z</time>
      </trkpt>
      <trkpt lat="45.289360" lon="14.199200">
        <ele>1235.0496</ele>
        <time>2012-05-01T05:24:44Z</time>
      </trkpt>
      <trkpt lat="45.289310" lon="14.199190">
        <ele>1236.2688</ele>
        <time>2012-05-01T05:24:51Z</time>
      </trkpt>
      <trkpt lat="45.289260" lon="14.199210">
        <ele>1241.7552</ele>
        <time>2012-05-01T05:24:59Z</time>
      </trkpt>
      <trkpt lat="45.289210" lon="14.199200">
        <ele>1244.4984</ele>
        <time>2012-05-01T05:25:06Z</time>
      </trkpt>
      <trkpt lat="45.289150" lon="14.199200">
        <ele>1245.7176</ele>
        <time>2012-05-01T05:25:14Z</time>
      </trkpt>
      <trkpt lat="45.289100" lon="14.199200">
        <ele>1247.5464</ele>
        <time>2012-05-01T05:25:18Z</time>
      </trkpt>
      <trkpt lat="45.289050" lon="14.199200">
        <ele>1245.4128</ele>
        <time>2012-05-01T05:25:25Z</time>
      </trkpt>
      <trkpt lat="45.288990" lon="14.199210">
        <ele>1244.1936</ele>
        <time>2012-05-01T05:25:31Z</time>
      </trkpt>
      <trkpt lat="45.288940" lon="14.199180">
        <ele>1246.0224</ele>
        <time>2012-05-01T05:25:35Z</time>
      </trkpt>
      <trkpt lat="45.288880" lon="14.199180">
        <ele>1244.8032</ele>
        <time>2012-05-01T05:25:38Z</time>
      </trkpt>
      <trkpt lat="45.288800" lon="14.199180">
        <ele>1243.8888</ele>
        <time>2012-05-01T05:25:41Z</time>
      </trkpt>
      <trkpt lat="45.288760" lon="14.199200">
        <ele>1243.584</ele>
        <time>2012-05-01T05:25:48Z</time>
      </trkpt>
      <trkpt lat="45.288710" lon="14.199220">
        <ele>1243.2792</ele>
        <time>2012-05-01T05:25:56Z</time>
      </trkpt>
      <trkpt lat="45.288660" lon="14.199200">
        <ele>1242.9744</ele>
        <time>2012-05-01T05:26:00Z</time>
      </trkpt>
      <trkpt lat="45.288610" lon="14.199200">
        <ele>1242.9744</ele>
        <time>2012-05-01T05:26:02Z</time>
      </trkpt>
      <trkpt lat="45.288560" lon="14.199200">
        <ele>1242.9744</ele>
        <time>2012-05-01T05:26:09Z</time>
      </trkpt>
      <trkpt lat="45.288500" lon="14.199200">
        <ele>1241.4504</ele>
        <time>2012-05-01T05:26:13Z</time>
      </trkpt>
      <trkpt lat="45.288450" lon="14.199190">
        <ele>1240.536</ele>
        <time>2012-05-01T05:26:16Z</time>
      </trkpt>
      <trkpt lat="45.288400" lon="14.199180">
        <ele>1240.536</ele>
        <time>2012-05-01T05:26:19Z</time>
      </trkpt>
      <trkpt lat="45.288320" lon="14.199150">
        <ele>1240.2312</ele>
        <time>2012-05-01T05:26:20Z</time>
      </trkpt>
      <trkpt lat="45.288270" lon="14.199170">
        <ele>1239.3168</ele>
        <time>2012-05-01T05:26:29Z</time>
      </trkpt>
      <trkpt lat="45.288220" lon="14.199160">
        <ele>1241.1456</ele>
        <time>2012-05-01T05:26:36Z</time>
      </trkpt>
      <trkpt lat="45.288160" lon="14.199140">
        <ele>1241.7552</ele>
        <time>2012-05-01T05:26:39Z</time>
      </trkpt>
      <trkpt lat="45.288120" lon="14.199160">
        <ele>1242.9744</ele>
        <time>2012-05-01T05:26:43Z</time>
      </trkpt>
      <trkpt lat="45.288070" lon="14.199150">
        <ele>1242.3648</ele>
        <time>2012-05-01T05:26:44Z</time>
      </trkpt>
      <trkpt lat="45.288020" lon="14.199150">
        <ele>1241.7552</ele>
        <time>2012-05-01T05:26:47Z</time>
      </trkpt>
      <trkpt lat="45.287970" lon="14.199130">
        <ele>1241.7552</ele>
        <time>2012-05-01T05:26:48Z</time>
      </trkpt>
      <trkpt lat="45.287910" lon="14.199090">
        <ele>1244.1936</ele>
        <time>2012-05-01T05:26:55Z</time>
      </trkpt>
      <trkpt lat="45.287860" lon="14.199100">
        <ele>1244.4984</ele>
        <time>2012-05-01T05:26:59Z</time>
      </trkpt>
      <trkpt lat="45.287740" lon="14.199030">
        <ele>1245.4128</ele>
        <time>2012-05-01T05:27:10Z</time>
      </trkpt>
      <trkpt lat="45.287690" lon="14.199030">
        <ele>1246.3272</ele>
        <time>2012-05-01T05:27:13Z</time>
      </trkpt>
      <trkpt lat="45.287620" lon="14.199010">
        <ele>1245.4128</ele>
        <time>2012-05-01T05:27:14Z</time>
      </trkpt>
      <trkpt lat="45.287570" lon="14.199020">
        <ele>1245.4128</ele>
        <time>2012-05-01T05:27:22Z</time>
      </trkpt>
      <trkpt lat="45.287520" lon="14.199040">
        <ele>1244.1936</ele>
        <time>2012-05-01T05:27:23Z</time>
      </trkpt>
      <trkpt lat="45.287470" lon="14.199020">
        <ele>1248.4608</ele>
        <time>2012-05-01T05:27:34Z</time>
      </trkpt>
      <trkpt lat="45.287410" lon="14.199020">
        <ele>1248.7656</ele>
        <time>2012-05-01T05:27:44Z</time>
      </trkpt>
      <trkpt lat="45.287360" lon="14.199020">
        <ele>1249.3752</ele>
        <time>2012-05-01T05:27:45Z</time>
      </trkpt>
      <trkpt lat="45.287310" lon="14.199040">
        <ele>1250.5944</ele>
        <time>2012-05-01T05:27:54Z</time>
      </trkpt>
      <trkpt lat="45.287260" lon="14.199030">
        <ele>1253.9472</ele>
        <time>2012-05-01T05:28:01Z</time>
      </trkpt>
      <trkpt lat="45.287210" lon="14.199020">
        <ele>1254.5568</ele>
        <time>2012-05-01T05:28:07Z</time>
      </trkpt>
      <trkpt lat="45.287160" lon="14.199030">
        <ele>1254.5568</ele>
        <time>2012-05-01T05:28:09Z</time>
      </trkpt>
      <trkpt lat="45.287110" lon="14.199010">
        <ele>1256.0808</ele>
        <time>2012-05-01T05:28:12Z</time>
      </trkpt>
      <trkpt lat="45.287070" lon="14.199030">
        <ele>1256.9952</ele>
        <time>2012-05-01T05:28:16Z</time>
      </trkpt>
      <trkpt lat="45.287020" lon="14.198990">
        <ele>1257.9096</ele>
        <time>2012-05-01T05:28:19Z</time>
      </trkpt>
      <trkpt lat="45.286980" lon="14.199000">
        <ele>1257.9096</ele>
        <time>2012-05-01T05:28:23Z</time>
      </trkpt>
      <trkpt lat="45.286920" lon="14.198980">
        <ele>1264.0056</ele>
        <time>2012-05-01T05:28:28Z</time>
      </trkpt>
      <trkpt lat="45.286870" lon="14.198970">
        <ele>1263.396</ele>
        <time>2012-05-01T05:28:31Z</time>
      </trkpt>
      <trkpt lat="45.286810" lon="14.198940">
        <ele>1264.92</ele>
        <time>2012-05-01T05:28:38Z</time>
      </trkpt>
      <trkpt lat="45.286760" lon="14.198950">
        <ele>1263.7008</ele>
        <time>2012-05-01T05:28:44Z</time>
      </trkpt>
      <trkpt lat="45.286710" lon="14.198930">
        <ele>1265.2248</ele>
        <time>2012-05-01T05:28:53Z</time>
      </trkpt>
      <trkpt lat="45.286650" lon="14.198930">
        <ele>1264.6152</ele>
        <time>2012-05-01T05:28:58Z</time>
      </trkpt>
      <trkpt lat="45.286600" lon="14.198920">
        <ele>1264.92</ele>
        <time>2012-05-01T05:29:03Z</time>
      </trkpt>
      <trkpt lat="45.286560" lon="14.198910">
        <ele>1265.5296</ele>
        <time>2012-05-01T05:29:09Z</time>
      </trkpt>
      <trkpt lat="45.286510" lon="14.198920">
        <ele>1264.92</ele>
        <time>2012-05-01T05:29:13Z</time>
      </trkpt>
      <trkpt lat="45.286460" lon="14.198910">
        <ele>1264.92</ele>
        <time>2012-05-01T05:29:20Z</time>
      </trkpt>
      <trkpt lat="45.286390" lon="14.198900">
        <ele>1264.92</ele>
        <time>2012-05-01T05:29:24Z</time>
      </trkpt>
      <trkpt lat="45.286340" lon="14.198910">
        <ele>1263.0912</ele>
        <time>2012-05-01T05:29:25Z</time>
      </trkpt>
      <trkpt lat="45.286270" lon="14.198880">
        <ele>1264.0056</ele>
        <time>2012-05-01T05:29:29Z</time>
      </trkpt>
      <trkpt lat="45.286220" lon="14.198860">
        <ele>1263.7008</ele>
        <time>2012-05-01T05:29:32Z</time>
      </trkpt>
      <trkpt lat="45.286160" lon="14.198860">
        <ele>1262.4816</ele>
        <time>2012-05-01T05:29:33Z</time>
      </trkpt>
      <trkpt lat="45.286110" lon="14.198860">
        <ele>1262.4816</ele>
        <time>2012-05-01T05:29:34Z</time>
      </trkpt>
      <trkpt lat="45.286060" lon="14.198830">
        <ele>1261.2624</ele>
        <time>2012-05-01T05:29:37Z</time>
      </trkpt>
      <trkpt lat="45.286010" lon="14.198820">
        <ele>1261.2624</ele>
        <time>2012-05-01T05:29:48Z</time>
      </trkpt>
      <trkpt lat="45.285900" lon="14.198770">
        <ele>1261.5672</ele>
        <time>2012-05-01T05:29:52Z</time>
      </trkpt>
      <trkpt lat="45.285820" lon="14.198770">
        <ele>1260.348</ele>
        <time>2012-05-01T05:29:55Z</time>
      </trkpt>
      <trkpt lat="45.285770" lon="14.198760">
        <ele>1260.348</ele>
        <time>2012-05-01T05:29:56Z</time>
      </trkpt>
      <trkpt lat="45.285700" lon="14.198760">
        <ele>1260.0432</ele>
        <time>2012-05-01T05:30:00Z</time>
      </trkpt>
      <trkpt lat="45.285660" lon="14.198680">
        <ele>1267.968</ele>
        <time>2012-05-01T05:30:01Z</time>
      </trkpt>
      <trkpt lat="45.285610" lon="14.198660">
        <ele>1267.6632</ele>
        <time>2012-05-01T05:30:04Z</time>
      </trkpt>
      <trkpt lat="45.285560" lon="14.198670">
        <ele>1269.492</ele>
        <time>2012-05-01T05:30:08Z</time>
      </trkpt>
      <trkpt lat="45.285520" lon="14.198660">
        <ele>1269.7968</ele>
        <time>2012-05-01T05:30:12Z</time>
      </trkpt>
      <trkpt lat="45.285470" lon="14.198650">
        <ele>1268.8824</ele>
        <time>2012-05-01T05:30:16Z</time>
      </trkpt>
      <trkpt lat="45.285410" lon="14.198640">
        <ele>1268.2728</ele>
        <time>2012-05-01T05:30:18Z</time>
      </trkpt>
      <trkpt lat="45.285370" lon="14.198660">
        <ele>1267.968</ele>
        <time>2012-05-01T05:30:24Z</time>
      </trkpt>
      <trkpt lat="45.285320" lon="14.198600">
        <ele>1268.5776</ele>
        <time>2012-05-01T05:30:27Z</time>
      </trkpt>
      <trkpt lat="45.285260" lon="14.198620">
        <ele>1263.0912</ele>
        <time>2012-05-01T05:30:31Z</time>
      </trkpt>
      <trkpt lat="45.285210" lon="14.198630">
        <ele>1261.5672</ele>
        <time>2012-05-01T05:30:39Z</time>
      </trkpt>
      <trkpt lat="45.285150" lon="14.198640">
        <ele>1262.7864</ele>
        <time>2012-05-01T05:30:42Z</time>
      </trkpt>
      <trkpt lat="45.285090" lon="14.198670">
        <ele>1265.2248</ele>
        <time>2012-05-01T05:30:50Z</time>
      </trkpt>
      <trkpt lat="45.285040" lon="14.198670">
        <ele>1267.968</ele>
        <time>2012-05-01T05:30:51Z</time>
      </trkpt>
      <trkpt lat="45.284960" lon="14.198680">
        <ele>1269.7968</ele>
        <time>2012-05-01T05:30:55Z</time>
      </trkpt>
      <trkpt lat="45.284920" lon="14.198690">
        <ele>1268.8824</ele>
        <time>2012-05-01T05:30:59Z</time>
      </trkpt>
      <trkpt lat="45.284870" lon="14.198700">
        <ele>1271.016</ele>
        <time>2012-05-01T05:31:03Z</time>
      </trkpt>
      <trkpt lat="45.284820" lon="14.198690">
        <ele>1274.6736</ele>
        <time>2012-05-01T05:31:08Z</time>
      </trkpt>
      <trkpt lat="45.284760" lon="14.198690">
        <ele>1276.5024</ele>
        <time>2012-05-01T05:31:13Z</time>
      </trkpt>
      <trkpt lat="45.284700" lon="14.198690">
        <ele>1275.588</ele>
        <time>2012-05-01T05:31:14Z</time>
      </trkpt>
      <trkpt lat="45.284610" lon="14.198720">
        <ele>1274.9784</ele>
        <time>2012-05-01T05:31:20Z</time>
      </trkpt>
      <trkpt lat="45.284560" lon="14.198770">
        <ele>1272.54</ele>
        <time>2012-05-01T05:31:24Z</time>
      </trkpt>
      <trkpt lat="45.284460" lon="14.198770">
        <ele>1273.4544</ele>
        <time>2012-05-01T05:31:35Z</time>
      </trkpt>
      <trkpt lat="45.284420" lon="14.198800">
        <ele>1272.2352</ele>
        <time>2012-05-01T05:31:41Z</time>
      </trkpt>
      <trkpt lat="45.284370" lon="14.198810">
        <ele>1271.3208</ele>
        <time>2012-05-01T05:31:48Z</time>
      </trkpt>
      <trkpt lat="45.284320" lon="14.198810">
        <ele>1270.4064</ele>
        <time>2012-05-01T05:31:51Z</time>
      </trkpt>
      <trkpt lat="45.284260" lon="14.198840">
        <ele>1271.6256</ele>
        <time>2012-05-01T05:31:53Z</time>
      </trkpt>
      <trkpt lat="45.284210" lon="14.198870">
        <ele>1269.1872</ele>
        <time>2012-05-01T05:32:00Z</time>
      </trkpt>
      <trkpt lat="45.284140" lon="14.198860">
        <ele>1268.2728</ele>
        <time>2012-05-01T05:32:02Z</time>
      </trkpt>
      <trkpt lat="45.284090" lon="14.198860">
        <ele>1267.6632</ele>
        <time>2012-05-01T05:32:03Z</time>
      </trkpt>
      <trkpt lat="45.284040" lon="14.198820">
        <ele>1268.8824</ele>
        <time>2012-05-01T05:32:04Z</time>
      </trkpt>
      <trkpt lat="45.283960" lon="14.198810">
        <ele>1270.4064</ele>
        <time>2012-05-01T05:32:07Z</time>
      </trkpt>
      <trkpt lat="45.283880" lon="14.198810">
        <ele>1274.064</ele>
        <time>2012-05-01T05:32:10Z</time>
      </trkpt>
      <trkpt lat="45.283830" lon="14.198800">
        <ele>1274.9784</ele>
        <time>2012-05-01T05:32:11Z</time>
      </trkpt>
      <trkpt lat="45.283640" lon="14.198830">
        <ele>1271.6256</ele>
        <time>2012-05-01T05:32:11Z</time>
      </trkpt>
      <trkpt lat="45.283520" lon="14.198780">
        <ele>1270.1016</ele>
        <time>2012-05-01T05:32:12Z</time>
      </trkpt>
      <trkpt lat="45.283440" lon="14.198750">
        <ele>1270.7112</ele>
        <time>2012-05-01T05:32:14Z</time>
      </trkpt>
      <trkpt lat="45.283390" lon="14.198680">
        <ele>1271.016</ele>
        <time>2012-05-01T05:32:15Z</time>
      </trkpt>
      <trkpt lat="45.283350" lon="14.198620">
        <ele>1271.3208</ele>
        <time>2012-05-01T05:32:18Z</time>
      </trkpt>
      <trkpt lat="45.283410" lon="14.198630">
        <ele>1271.9304</ele>
        <time>2012-05-01T05:32:19Z</time>
      </trkpt>
      <trkpt lat="45.283510" lon="14.198690">
        <ele>1271.016</ele>
        <time>2012-05-01T05:32:19Z</time>
      </trkpt>
      <trkpt lat="45.283620" lon="14.198670">
        <ele>1271.6256</ele>
        <time>2012-05-01T05:32:22Z</time>
      </trkpt>
      <trkpt lat="45.283680" lon="14.198670">
        <ele>1272.54</ele>
        <time>2012-05-01T05:32:23Z</time>
      </trkpt>
      <trkpt lat="45.283760" lon="14.198690">
        <ele>1272.8448</ele>
        <time>2012-05-01T05:32:23Z</time>
      </trkpt>
      <trkpt lat="45.283810" lon="14.198700">
        <ele>1274.064</ele>
        <time>2012-05-01T05:32:24Z</time>
      </trkpt>
      <trkpt lat="45.283890" lon="14.198760">
        <ele>1274.3688</ele>
        <time>2012-05-01T05:32:26Z</time>
      </trkpt>
      <trkpt lat="45.283970" lon="14.198810">
        <ele>1276.1976</ele>
        <time>2012-05-01T05:32:27Z</time>
      </trkpt>
      <trkpt lat="45.284020" lon="14.198840">
        <ele>1274.064</ele>
        <time>2012-05-01T05:32:29Z</time>
      </trkpt>
      <trkpt lat="45.284090" lon="14.198920">
        <ele>1274.6736</ele>
        <time>2012-05-01T05:32:34Z</time>
      </trkpt>
      <trkpt lat="45.284000" lon="14.198920">
        <ele>1274.064</ele>
        <time>2012-05-01T05:32:34Z</time>
      </trkpt>
      <trkpt lat="45.283810" lon="14.198910">
        <ele>1271.6256</ele>
        <time>2012-05-01T05:32:42Z</time>
      </trkpt>
      <trkpt lat="45.283790" lon="14.198970">
        <ele>1270.4064</ele>
        <time>2012-05-01T05:32:45Z</time>
      </trkpt>
      <trkpt lat="45.283740" lon="14.198970">
        <ele>1270.7112</ele>
        <time>2012-05-01T05:32:49Z</time>
      </trkpt>
      <trkpt lat="45.283690" lon="14.199020">
        <ele>1271.016</ele>
        <time>2012-05-01T05:33:01Z</time>
      </trkpt>
      <trkpt lat="45.283640" lon="14.199020">
        <ele>1274.3688</ele>
        <time>2012-05-01T05:33:05Z</time>
      </trkpt>
      <trkpt lat="45.283580" lon="14.199030">
        <ele>1274.6736</ele>
        <time>2012-05-01T05:33:08Z</time>
      </trkpt>
      <trkpt lat="45.283540" lon="14.199060">
        <ele>1273.7592</ele>
        <time>2012-05-01T05:33:14Z</time>
      </trkpt>
      <trkpt lat="45.283470" lon="14.199040">
        <ele>1273.7592</ele>
        <time>2012-05-01T05:33:18Z</time>
      </trkpt>
      <trkpt lat="45.283440" lon="14.199140">
        <ele>1272.8448</ele>
        <time>2012-05-01T05:33:21Z</time>
      </trkpt>
      <trkpt lat="45.283380" lon="14.199110">
        <ele>1276.8072</ele>
        <time>2012-05-01T05:33:25Z</time>
      </trkpt>
      <trkpt lat="45.283330" lon="14.199110">
        <ele>1276.8072</ele>
        <time>2012-05-01T05:33:27Z</time>
      </trkpt>
      <trkpt lat="45.283280" lon="14.199120">
        <ele>1276.5024</ele>
        <time>2012-05-01T05:33:28Z</time>
      </trkpt>
      <trkpt lat="45.283230" lon="14.199120">
        <ele>1281.9888</ele>
        <time>2012-05-01T05:33:32Z</time>
      </trkpt>
      <trkpt lat="45.283190" lon="14.199150">
        <ele>1283.8176</ele>
        <time>2012-05-01T05:33:40Z</time>
      </trkpt>
      <trkpt lat="45.283150" lon="14.199190">
        <ele>1284.4272</ele>
        <time>2012-05-01T05:33:43Z</time>
      </trkpt>
      <trkpt lat="45.283080" lon="14.199200">
        <ele>1284.4272</ele>
        <time>2012-05-01T05:33:45Z</time>
      </trkpt>
      <trkpt lat="45.283030" lon="14.199230">
        <ele>1283.5128</ele>
        <time>2012-05-01T05:33:48Z</time>
      </trkpt>
      <trkpt lat="45.282980" lon="14.199240">
        <ele>1283.208</ele>
        <time>2012-05-01T05:33:52Z</time>
      </trkpt>
      <trkpt lat="45.282950" lon="14.199290">
        <ele>1282.2936</ele>
        <time>2012-05-01T05:33:55Z</time>
      </trkpt>
      <trkpt lat="45.282880" lon="14.199290">
        <ele>1285.6464</ele>
        <time>2012-05-01T05:34:07Z</time>
      </trkpt>
      <trkpt lat="45.282820" lon="14.199310">
        <ele>1284.1224</ele>
        <time>2012-05-01T05:34:08Z</time>
      </trkpt>
      <trkpt lat="45.282770" lon="14.199330">
        <ele>1282.2936</ele>
        <time>2012-05-01T05:34:18Z</time>
      </trkpt>
      <trkpt lat="45.282720" lon="14.199340">
        <ele>1283.8176</ele>
        <time>2012-05-01T05:34:22Z</time>
      </trkpt>
      <trkpt lat="45.282680" lon="14.199380">
        <ele>1283.208</ele>
        <time>2012-05-01T05:34:31Z</time>
      </trkpt>
      <trkpt lat="45.282630" lon="14.199420">
        <ele>1282.5984</ele>
        <time>2012-05-01T05:34:34Z</time>
      </trkpt>
      <trkpt lat="45.282580" lon="14.199450">
        <ele>1281.0744</ele>
        <time>2012-05-01T05:34:42Z</time>
      </trkpt>
      <trkpt lat="45.282530" lon="14.199450">
        <ele>1282.5984</ele>
        <time>2012-05-01T05:34:45Z</time>
      </trkpt>
      <trkpt lat="45.282480" lon="14.199460">
        <ele>1282.9032</ele>
        <time>2012-05-01T05:34:48Z</time>
      </trkpt>
      <trkpt lat="45.282430" lon="14.199430">
        <ele>1288.6944</ele>
        <time>2012-05-01T05:34:56Z</time>
      </trkpt>
      <trkpt lat="45.282380" lon="14.199480">
        <ele>1289.6088</ele>
        <time>2012-05-01T05:35:00Z</time>
      </trkpt>
      <trkpt lat="45.282330" lon="14.199450">
        <ele>1292.352</ele>
        <time>2012-05-01T05:35:02Z</time>
      </trkpt>
      <trkpt lat="45.282260" lon="14.199460">
        <ele>1296.0096</ele>
        <time>2012-05-01T05:35:08Z</time>
      </trkpt>
      <trkpt lat="45.282200" lon="14.199460">
        <ele>1296.924</ele>
        <time>2012-05-01T05:35:11Z</time>
      </trkpt>
      <trkpt lat="45.282160" lon="14.199500">
        <ele>1293.5712</ele>
        <time>2012-05-01T05:35:13Z</time>
      </trkpt>
      <trkpt lat="45.282120" lon="14.199540">
        <ele>1294.7904</ele>
        <time>2012-05-01T05:35:19Z</time>
      </trkpt>
      <trkpt lat="45.282060" lon="14.199570">
        <ele>1292.9616</ele>
        <time>2012-05-01T05:35:24Z</time>
      </trkpt>
      <trkpt lat="45.282000" lon="14.199550">
        <ele>1297.5336</ele>
        <time>2012-05-01T05:35:27Z</time>
      </trkpt>
      <trkpt lat="45.281940" lon="14.199580">
        <ele>1298.1432</ele>
        <time>2012-05-01T05:35:32Z</time>
      </trkpt>
      <trkpt lat="45.281880" lon="14.199560">
        <ele>1301.496</ele>
        <time>2012-05-01T05:35:35Z</time>
      </trkpt>
      <trkpt lat="45.281830" lon="14.199580">
        <ele>1302.4104</ele>
        <time>2012-05-01T05:35:40Z</time>
      </trkpt>
      <trkpt lat="45.281780" lon="14.199600">
        <ele>1300.5816</ele>
        <time>2012-05-01T05:35:46Z</time>
      </trkpt>
      <trkpt lat="45.281730" lon="14.199620">
        <ele>1301.1912</ele>
        <time>2012-05-01T05:35:50Z</time>
      </trkpt>
      <trkpt lat="45.281670" lon="14.199640">
        <ele>1302.1056</ele>
        <time>2012-05-01T05:35:51Z</time>
      </trkpt>
      <trkpt lat="45.281620" lon="14.199660">
        <ele>1303.9344</ele>
        <time>2012-05-01T05:35:55Z</time>
      </trkpt>
      <trkpt lat="45.281580" lon="14.199700">
        <ele>1302.1056</ele>
        <time>2012-05-01T05:36:00Z</time>
      </trkpt>
      <trkpt lat="45.281520" lon="14.199740">
        <ele>1301.496</ele>
        <time>2012-05-01T05:36:07Z</time>
      </trkpt>
      <trkpt lat="45.281490" lon="14.199780">
        <ele>1301.496</ele>
        <time>2012-05-01T05:36:09Z</time>
      </trkpt>
      <trkpt lat="45.281440" lon="14.199820">
        <ele>1303.9344</ele>
        <time>2012-05-01T05:36:15Z</time>
      </trkpt>
      <trkpt lat="45.281390" lon="14.199860">
        <ele>1301.496</ele>
        <time>2012-05-01T05:36:18Z</time>
      </trkpt>
      <trkpt lat="45.281330" lon="14.199890">
        <ele>1301.8008</ele>
        <time>2012-05-01T05:36:22Z</time>
      </trkpt>
      <trkpt lat="45.281280" lon="14.199920">
        <ele>1303.3248</ele>
        <time>2012-05-01T05:36:25Z</time>
      </trkpt>
      <trkpt lat="45.281260" lon="14.199970">
        <ele>1302.4104</ele>
        <time>2012-05-01T05:36:27Z</time>
      </trkpt>
      <trkpt lat="45.281230" lon="14.200040">
        <ele>1302.7152</ele>
        <time>2012-05-01T05:36:30Z</time>
      </trkpt>
      <trkpt lat="45.281190" lon="14.200060">
        <ele>1305.4584</ele>
        <time>2012-05-01T05:36:37Z</time>
      </trkpt>
      <trkpt lat="45.281150" lon="14.200100">
        <ele>1306.3728</ele>
        <time>2012-05-01T05:36:44Z</time>
      </trkpt>
      <trkpt lat="45.281110" lon="14.200160">
        <ele>1309.4208</ele>
        <time>2012-05-01T05:36:48Z</time>
      </trkpt>
      <trkpt lat="45.281080" lon="14.200200">
        <ele>1309.7256</ele>
        <time>2012-05-01T05:36:53Z</time>
      </trkpt>
      <trkpt lat="45.281030" lon="14.200270">
        <ele>1309.7256</ele>
        <time>2012-05-01T05:36:56Z</time>
      </trkpt>
      <trkpt lat="45.281000" lon="14.200330">
        <ele>1309.116</ele>
        <time>2012-05-01T05:37:00Z</time>
      </trkpt>
      <trkpt lat="45.280960" lon="14.200330">
        <ele>1312.4688</ele>
        <time>2012-05-01T05:37:04Z</time>
      </trkpt>
      <trkpt lat="45.280920" lon="14.200360">
        <ele>1311.8592</ele>
        <time>2012-05-01T05:37:08Z</time>
      </trkpt>
      <trkpt lat="45.280870" lon="14.200420">
        <ele>1310.64</ele>
        <time>2012-05-01T05:37:11Z</time>
      </trkpt>
      <trkpt lat="45.280830" lon="14.200460">
        <ele>1308.5064</ele>
        <time>2012-05-01T05:37:15Z</time>
      </trkpt>
      <trkpt lat="45.280800" lon="14.200510">
        <ele>1309.116</ele>
        <time>2012-05-01T05:37:19Z</time>
      </trkpt>
      <trkpt lat="45.280800" lon="14.200580">
        <ele>1306.6776</ele>
        <time>2012-05-01T05:37:23Z</time>
      </trkpt>
      <trkpt lat="45.280820" lon="14.200640">
        <ele>1304.544</ele>
        <time>2012-05-01T05:37:30Z</time>
      </trkpt>
      <trkpt lat="45.280770" lon="14.200660">
        <ele>1304.2392</ele>
        <time>2012-05-01T05:37:35Z</time>
      </trkpt>
      <trkpt lat="45.280760" lon="14.200720">
        <ele>1303.6296</ele>
        <time>2012-05-01T05:37:39Z</time>
      </trkpt>
      <trkpt lat="45.280720" lon="14.200760">
        <ele>1306.068</ele>
        <time>2012-05-01T05:37:43Z</time>
      </trkpt>
      <trkpt lat="45.280680" lon="14.200780">
        <ele>1308.2016</ele>
        <time>2012-05-01T05:37:47Z</time>
      </trkpt>
      <trkpt lat="45.280660" lon="14.200850">
        <ele>1306.9824</ele>
        <time>2012-05-01T05:37:51Z</time>
      </trkpt>
      <trkpt lat="45.280610" lon="14.200840">
        <ele>1311.2496</ele>
        <time>2012-05-01T05:37:54Z</time>
      </trkpt>
      <trkpt lat="45.280590" lon="14.200900">
        <ele>1310.64</ele>
        <time>2012-05-01T05:37:58Z</time>
      </trkpt>
      <trkpt lat="45.280580" lon="14.200980">
        <ele>1311.2496</ele>
        <time>2012-05-01T05:38:01Z</time>
      </trkpt>
      <trkpt lat="45.280540" lon="14.201020">
        <ele>1311.8592</ele>
        <time>2012-05-01T05:38:03Z</time>
      </trkpt>
      <trkpt lat="45.280490" lon="14.201050">
        <ele>1313.3832</ele>
        <time>2012-05-01T05:38:09Z</time>
      </trkpt>
      <trkpt lat="45.280450" lon="14.201100">
        <ele>1314.9072</ele>
        <time>2012-05-01T05:38:13Z</time>
      </trkpt>
      <trkpt lat="45.280420" lon="14.201150">
        <ele>1313.9928</ele>
        <time>2012-05-01T05:38:17Z</time>
      </trkpt>
      <trkpt lat="45.280390" lon="14.201200">
        <ele>1314.2976</ele>
        <time>2012-05-01T05:38:22Z</time>
      </trkpt>
      <trkpt lat="45.280420" lon="14.201260">
        <ele>1312.4688</ele>
        <time>2012-05-01T05:38:33Z</time>
      </trkpt>
      <trkpt lat="45.280380" lon="14.201320">
        <ele>1310.3352</ele>
        <time>2012-05-01T05:38:40Z</time>
      </trkpt>
      <trkpt lat="45.280350" lon="14.201380">
        <ele>1309.116</ele>
        <time>2012-05-01T05:38:44Z</time>
      </trkpt>
      <trkpt lat="45.280320" lon="14.201440">
        <ele>1308.5064</ele>
        <time>2012-05-01T05:38:49Z</time>
      </trkpt>
      <trkpt lat="45.280340" lon="14.201500">
        <ele>1303.02</ele>
        <time>2012-05-01T05:38:56Z</time>
      </trkpt>
      <trkpt lat="45.280290" lon="14.201530">
        <ele>1303.3248</ele>
        <time>2012-05-01T05:39:04Z</time>
      </trkpt>
      <trkpt lat="45.280240" lon="14.201570">
        <ele>1303.9344</ele>
        <time>2012-05-01T05:39:08Z</time>
      </trkpt>
      <trkpt lat="45.280200" lon="14.201620">
        <ele>1305.4584</ele>
        <time>2012-05-01T05:39:12Z</time>
      </trkpt>
      <trkpt lat="45.280150" lon="14.201660">
        <ele>1306.3728</ele>
        <time>2012-05-01T05:39:16Z</time>
      </trkpt>
      <trkpt lat="45.280120" lon="14.201720">
        <ele>1304.8488</ele>
        <time>2012-05-01T05:39:20Z</time>
      </trkpt>
      <trkpt lat="45.280090" lon="14.201770">
        <ele>1304.2392</ele>
        <time>2012-05-01T05:39:24Z</time>
      </trkpt>
      <trkpt lat="45.280060" lon="14.201830">
        <ele>1304.2392</ele>
        <time>2012-05-01T05:39:28Z</time>
      </trkpt>
      <trkpt lat="45.280040" lon="14.201880">
        <ele>1304.544</ele>
        <time>2012-05-01T05:39:34Z</time>
      </trkpt>
      <trkpt lat="45.280020" lon="14.201940">
        <ele>1302.7152</ele>
        <time>2012-05-01T05:39:49Z</time>
      </trkpt>
      <trkpt lat="45.280040" lon="14.202010">
        <ele>1300.5816</ele>
        <time>2012-05-01T05:39:53Z</time>
      </trkpt>
      <trkpt lat="45.280080" lon="14.202040">
        <ele>1297.8384</ele>
        <time>2012-05-01T05:40:10Z</time>
      </trkpt>
      <trkpt lat="45.280140" lon="14.202030">
        <ele>1296.6192</ele>
        <time>2012-05-01T05:40:16Z</time>
      </trkpt>
      <trkpt lat="45.280180" lon="14.202010">
        <ele>1296.3144</ele>
        <time>2012-05-01T05:40:21Z</time>
      </trkpt>
      <trkpt lat="45.280230" lon="14.201970">
        <ele>1296.3144</ele>
        <time>2012-05-01T05:40:25Z</time>
      </trkpt>
      <trkpt lat="45.280270" lon="14.201930">
        <ele>1296.924</ele>
        <time>2012-05-01T05:40:28Z</time>
      </trkpt>
      <trkpt lat="45.280300" lon="14.201880">
        <ele>1296.3144</ele>
        <time>2012-05-01T05:40:33Z</time>
      </trkpt>
      <trkpt lat="45.280340" lon="14.201850">
        <ele>1297.5336</ele>
        <time>2012-05-01T05:40:39Z</time>
      </trkpt>
      <trkpt lat="45.280390" lon="14.201820">
        <ele>1298.448</ele>
        <time>2012-05-01T05:40:45Z</time>
      </trkpt>
      <trkpt lat="45.280430" lon="14.201800">
        <ele>1299.3624</ele>
        <time>2012-05-01T05:40:51Z</time>
      </trkpt>
      <trkpt lat="45.280480" lon="14.201780">
        <ele>1299.972</ele>
        <time>2012-05-01T05:40:56Z</time>
      </trkpt>
      <trkpt lat="45.280520" lon="14.201770">
        <ele>1301.1912</ele>
        <time>2012-05-01T05:41:02Z</time>
      </trkpt>
      <trkpt lat="45.280570" lon="14.201760">
        <ele>1301.1912</ele>
        <time>2012-05-01T05:41:07Z</time>
      </trkpt>
      <trkpt lat="45.280620" lon="14.201760">
        <ele>1302.1056</ele>
        <time>2012-05-01T05:41:12Z</time>
      </trkpt>
      <trkpt lat="45.280660" lon="14.201780">
        <ele>1303.02</ele>
        <time>2012-05-01T05:41:18Z</time>
      </trkpt>
      <trkpt lat="45.280710" lon="14.201780">
        <ele>1303.9344</ele>
        <time>2012-05-01T05:41:23Z</time>
      </trkpt>
      <trkpt lat="45.280760" lon="14.201760">
        <ele>1305.7632</ele>
        <time>2012-05-01T05:41:31Z</time>
      </trkpt>
      <trkpt lat="45.280810" lon="14.201760">
        <ele>1308.2016</ele>
        <time>2012-05-01T05:41:39Z</time>
      </trkpt>
      <trkpt lat="45.280850" lon="14.201770">
        <ele>1310.3352</ele>
        <time>2012-05-01T05:41:47Z</time>
      </trkpt>
      <trkpt lat="45.280900" lon="14.201760">
        <ele>1313.0784</ele>
        <time>2012-05-01T05:41:56Z</time>
      </trkpt>
      <trkpt lat="45.280940" lon="14.201720">
        <ele>1315.5168</ele>
        <time>2012-05-01T05:42:02Z</time>
      </trkpt>
      <trkpt lat="45.280980" lon="14.201700">
        <ele>1317.3456</ele>
        <time>2012-05-01T05:42:12Z</time>
      </trkpt>
      <trkpt lat="45.281020" lon="14.201680">
        <ele>1318.5648</ele>
        <time>2012-05-01T05:42:18Z</time>
      </trkpt>
      <trkpt lat="45.281070" lon="14.201660">
        <ele>1320.3936</ele>
        <time>2012-05-01T05:42:33Z</time>
      </trkpt>
      <trkpt lat="45.281120" lon="14.201660">
        <ele>1326.1848</ele>
        <time>2012-05-01T05:42:52Z</time>
      </trkpt>
      <trkpt lat="45.281160" lon="14.201630">
        <ele>1325.88</ele>
        <time>2012-05-01T05:42:56Z</time>
      </trkpt>
      <trkpt lat="45.281200" lon="14.201640">
        <ele>1332.8904</ele>
        <time>2012-05-01T05:43:15Z</time>
      </trkpt>
      <trkpt lat="45.281250" lon="14.201640">
        <ele>1332.5856</ele>
        <time>2012-05-01T05:43:26Z</time>
      </trkpt>
      <trkpt lat="45.281300" lon="14.201650">
        <ele>1338.072</ele>
        <time>2012-05-01T05:43:33Z</time>
      </trkpt>
      <trkpt lat="45.281350" lon="14.201640">
        <ele>1339.596</ele>
        <time>2012-05-01T05:43:42Z</time>
      </trkpt>
      <trkpt lat="45.281390" lon="14.201620">
        <ele>1338.6816</ele>
        <time>2012-05-01T05:43:50Z</time>
      </trkpt>
      <trkpt lat="45.281450" lon="14.201630">
        <ele>1338.072</ele>
        <time>2012-05-01T05:43:57Z</time>
      </trkpt>
      <trkpt lat="45.281500" lon="14.201630">
        <ele>1341.12</ele>
        <time>2012-05-01T05:44:09Z</time>
      </trkpt>
      <trkpt lat="45.281540" lon="14.201580">
        <ele>1343.5584</ele>
        <time>2012-05-01T05:44:51Z</time>
      </trkpt>
      <trkpt lat="45.281580" lon="14.201550">
        <ele>1344.7776</ele>
        <time>2012-05-01T05:44:55Z</time>
      </trkpt>
      <trkpt lat="45.281620" lon="14.201520">
        <ele>1348.74</ele>
        <time>2012-05-01T05:45:05Z</time>
      </trkpt>
      <trkpt lat="45.281660" lon="14.201520">
        <ele>1351.4832</ele>
        <time>2012-05-01T05:45:14Z</time>
      </trkpt>
      <trkpt lat="45.281710" lon="14.201520">
        <ele>1350.5688</ele>
        <time>2012-05-01T05:45:21Z</time>
      </trkpt>
      <trkpt lat="45.281760" lon="14.201510">
        <ele>1354.836</ele>
        <time>2012-05-01T05:45:34Z</time>
      </trkpt>
      <trkpt lat="45.281800" lon="14.201470">
        <ele>1357.5792</ele>
        <time>2012-05-01T05:45:40Z</time>
      </trkpt>
      <trkpt lat="45.281850" lon="14.201460">
        <ele>1358.7984</ele>
        <time>2012-05-01T05:45:49Z</time>
      </trkpt>
      <trkpt lat="45.281900" lon="14.201460">
        <ele>1362.1512</ele>
        <time>2012-05-01T05:45:56Z</time>
      </trkpt>
      <trkpt lat="45.281950" lon="14.201460">
        <ele>1363.6752</ele>
        <time>2012-05-01T05:46:01Z</time>
      </trkpt>
      <trkpt lat="45.281990" lon="14.201500">
        <ele>1367.028</ele>
        <time>2012-05-01T05:46:08Z</time>
      </trkpt>
      <trkpt lat="45.282040" lon="14.201500">
        <ele>1368.552</ele>
        <time>2012-05-01T05:46:15Z</time>
      </trkpt>
      <trkpt lat="45.282080" lon="14.201530">
        <ele>1370.9904</ele>
        <time>2012-05-01T05:46:34Z</time>
      </trkpt>
      <trkpt lat="45.282140" lon="14.201540">
        <ele>1372.5144</ele>
        <time>2012-05-01T05:46:39Z</time>
      </trkpt>
      <trkpt lat="45.282170" lon="14.201580">
        <ele>1373.124</ele>
        <time>2012-05-01T05:46:44Z</time>
      </trkpt>
      <trkpt lat="45.282220" lon="14.201600">
        <ele>1374.0384</ele>
        <time>2012-05-01T05:46:50Z</time>
      </trkpt>
      <trkpt lat="45.282260" lon="14.201590">
        <ele>1375.2576</ele>
        <time>2012-05-01T05:46:55Z</time>
      </trkpt>
      <trkpt lat="45.282320" lon="14.201580">
        <ele>1375.8672</ele>
        <time>2012-05-01T05:47:01Z</time>
      </trkpt>
      <trkpt lat="45.282370" lon="14.201580">
        <ele>1377.696</ele>
        <time>2012-05-01T05:47:07Z</time>
      </trkpt>
      <trkpt lat="45.282410" lon="14.201570">
        <ele>1381.0488</ele>
        <time>2012-05-01T05:47:17Z</time>
      </trkpt>
      <trkpt lat="45.282460" lon="14.201580">
        <ele>1385.6208</ele>
        <time>2012-05-01T05:47:24Z</time>
      </trkpt>
      <trkpt lat="45.282510" lon="14.201610">
        <ele>1386.5352</ele>
        <time>2012-05-01T05:47:33Z</time>
      </trkpt>
      <trkpt lat="45.282550" lon="14.201650">
        <ele>1389.5832</ele>
        <time>2012-05-01T05:47:49Z</time>
      </trkpt>
      <trkpt lat="45.282580" lon="14.201700">
        <ele>1390.8024</ele>
        <time>2012-05-01T05:47:55Z</time>
      </trkpt>
      <trkpt lat="45.282620" lon="14.201760">
        <ele>1392.936</ele>
        <time>2012-05-01T05:48:00Z</time>
      </trkpt>
      <trkpt lat="45.282640" lon="14.201820">
        <ele>1393.2408</ele>
        <time>2012-05-01T05:48:04Z</time>
      </trkpt>
      <trkpt lat="45.282640" lon="14.201890">
        <ele>1392.936</ele>
        <time>2012-05-01T05:48:11Z</time>
      </trkpt>
      <trkpt lat="45.282660" lon="14.201950">
        <ele>1394.1552</ele>
        <time>2012-05-01T05:48:16Z</time>
      </trkpt>
      <trkpt lat="45.282690" lon="14.201900">
        <ele>1395.984</ele>
        <time>2012-05-01T05:48:23Z</time>
      </trkpt>
      <trkpt lat="45.282720" lon="14.201840">
        <ele>1397.508</ele>
        <time>2012-05-01T05:48:30Z</time>
      </trkpt>
      <trkpt lat="45.282730" lon="14.201770">
        <ele>1397.8128</ele>
        <time>2012-05-01T05:48:35Z</time>
      </trkpt>
      <trkpt lat="45.282740" lon="14.201710">
        <ele>1397.2032</ele>
        <time>2012-05-01T05:48:39Z</time>
      </trkpt>
      <trkpt lat="45.282760" lon="14.201640">
        <ele>1397.8128</ele>
        <time>2012-05-01T05:48:45Z</time>
      </trkpt>
      <trkpt lat="45.282800" lon="14.201680">
        <ele>1399.3368</ele>
        <time>2012-05-01T05:48:57Z</time>
      </trkpt>
      <trkpt lat="45.282850" lon="14.201670">
        <ele>1401.7752</ele>
        <time>2012-05-01T05:49:03Z</time>
      </trkpt>
      <trkpt lat="45.282900" lon="14.201690">
        <ele>1403.9088</ele>
        <time>2012-05-01T05:49:14Z</time>
      </trkpt>
      <trkpt lat="45.282940" lon="14.201650">
        <ele>1405.7376</ele>
        <time>2012-05-01T05:49:21Z</time>
      </trkpt>
      <trkpt lat="45.282980" lon="14.201670">
        <ele>1411.5288</ele>
        <time>2012-05-01T05:49:33Z</time>
      </trkpt>
      <trkpt lat="45.283020" lon="14.201700">
        <ele>1413.0528</ele>
        <time>2012-05-01T05:49:47Z</time>
      </trkpt>
      <trkpt lat="45.283070" lon="14.201710">
        <ele>1414.8816</ele>
        <time>2012-05-01T05:49:53Z</time>
      </trkpt>
      <trkpt lat="45.283120" lon="14.201760">
        <ele>1416.7104</ele>
        <time>2012-05-01T05:50:03Z</time>
      </trkpt>
      <trkpt lat="45.283160" lon="14.201790">
        <ele>1418.2344</ele>
        <time>2012-05-01T05:50:12Z</time>
      </trkpt>
      <trkpt lat="45.283200" lon="14.201820">
        <ele>1421.892</ele>
        <time>2012-05-01T05:50:20Z</time>
      </trkpt>
      <trkpt lat="45.283240" lon="14.201850">
        <ele>1423.416</ele>
        <time>2012-05-01T05:50:37Z</time>
      </trkpt>
      <trkpt lat="45.283280" lon="14.201850">
        <ele>1425.2448</ele>
        <time>2012-05-01T05:50:43Z</time>
      </trkpt>
      <trkpt lat="45.283330" lon="14.201860">
        <ele>1427.6832</ele>
        <time>2012-05-01T05:50:50Z</time>
      </trkpt>
      <trkpt lat="45.283380" lon="14.201860">
        <ele>1429.8168</ele>
        <time>2012-05-01T05:50:57Z</time>
      </trkpt>
      <trkpt lat="45.283430" lon="14.201880">
        <ele>1428.2928</ele>
        <time>2012-05-01T05:51:04Z</time>
      </trkpt>
      <trkpt lat="45.283480" lon="14.201880">
        <ele>1428.9024</ele>
        <time>2012-05-01T05:51:12Z</time>
      </trkpt>
      <trkpt lat="45.283520" lon="14.201900">
        <ele>1428.9024</ele>
        <time>2012-05-01T05:51:18Z</time>
      </trkpt>
      <trkpt lat="45.283570" lon="14.201910">
        <ele>1431.036</ele>
        <time>2012-05-01T05:51:23Z</time>
      </trkpt>
      <trkpt lat="45.283630" lon="14.201910">
        <ele>1430.7312</ele>
        <time>2012-05-01T05:51:28Z</time>
      </trkpt>
      <trkpt lat="45.283680" lon="14.201920">
        <ele>1431.9504</ele>
        <time>2012-05-01T05:51:48Z</time>
      </trkpt>
      <trkpt lat="45.283730" lon="14.201930">
        <ele>1432.8648</ele>
        <time>2012-05-01T05:52:08Z</time>
      </trkpt>
      <trkpt lat="45.283780" lon="14.201930">
        <ele>1434.6936</ele>
        <time>2012-05-01T05:52:26Z</time>
      </trkpt>
      <trkpt lat="45.283830" lon="14.201950">
        <ele>1435.9128</ele>
        <time>2012-05-01T05:52:31Z</time>
      </trkpt>
      <trkpt lat="45.283880" lon="14.201940">
        <ele>1437.7416</ele>
        <time>2012-05-01T05:52:35Z</time>
      </trkpt>
      <trkpt lat="45.283930" lon="14.201930">
        <ele>1438.3512</ele>
        <time>2012-05-01T05:52:39Z</time>
      </trkpt>
      <trkpt lat="45.283970" lon="14.201930">
        <ele>1437.132</ele>
        <time>2012-05-01T05:52:44Z</time>
      </trkpt>
      <trkpt lat="45.284020" lon="14.201950">
        <ele>1435.608</ele>
        <time>2012-05-01T05:52:49Z</time>
      </trkpt>
      <trkpt lat="45.284070" lon="14.201950">
        <ele>1435.608</ele>
        <time>2012-05-01T05:52:53Z</time>
      </trkpt>
      <trkpt lat="45.284120" lon="14.201960">
        <ele>1437.132</ele>
        <time>2012-05-01T05:52:58Z</time>
      </trkpt>
      <trkpt lat="45.284170" lon="14.201980">
        <ele>1438.0464</ele>
        <time>2012-05-01T05:53:05Z</time>
      </trkpt>
      <trkpt lat="45.284220" lon="14.202000">
        <ele>1438.656</ele>
        <time>2012-05-01T05:53:09Z</time>
      </trkpt>
      <trkpt lat="45.284260" lon="14.202020">
        <ele>1438.9608</ele>
        <time>2012-05-01T05:53:15Z</time>
      </trkpt>
      <trkpt lat="45.284310" lon="14.202010">
        <ele>1439.8752</ele>
        <time>2012-05-01T05:53:20Z</time>
      </trkpt>
      <trkpt lat="45.284370" lon="14.202010">
        <ele>1439.2656</ele>
        <time>2012-05-01T05:53:24Z</time>
      </trkpt>
      <trkpt lat="45.284430" lon="14.202020">
        <ele>1439.2656</ele>
        <time>2012-05-01T05:53:31Z</time>
      </trkpt>
      <trkpt lat="45.284480" lon="14.202010">
        <ele>1439.5704</ele>
        <time>2012-05-01T05:53:36Z</time>
      </trkpt>
      <trkpt lat="45.284520" lon="14.202020">
        <ele>1437.4368</ele>
        <time>2012-05-01T05:53:39Z</time>
      </trkpt>
      <trkpt lat="45.284570" lon="14.202030">
        <ele>1437.7416</ele>
        <time>2012-05-01T05:53:43Z</time>
      </trkpt>
      <trkpt lat="45.284610" lon="14.202040">
        <ele>1437.7416</ele>
        <time>2012-05-01T05:53:47Z</time>
      </trkpt>
      <trkpt lat="45.284660" lon="14.202040">
        <ele>1439.2656</ele>
        <time>2012-05-01T05:53:51Z</time>
      </trkpt>
      <trkpt lat="45.284700" lon="14.202040">
        <ele>1440.7896</ele>
        <time>2012-05-01T05:53:59Z</time>
      </trkpt>
      <trkpt lat="45.284760" lon="14.202030">
        <ele>1441.704</ele>
        <time>2012-05-01T05:54:05Z</time>
      </trkpt>
      <trkpt lat="45.284800" lon="14.202020">
        <ele>1442.3136</ele>
        <time>2012-05-01T05:54:17Z</time>
      </trkpt>
      <trkpt lat="45.284860" lon="14.202040">
        <ele>1442.3136</ele>
        <time>2012-05-01T05:54:22Z</time>
      </trkpt>
      <trkpt lat="45.284900" lon="14.202060">
        <ele>1441.0944</ele>
        <time>2012-05-01T05:54:26Z</time>
      </trkpt>
      <trkpt lat="45.284950" lon="14.202080">
        <ele>1441.704</ele>
        <time>2012-05-01T05:54:32Z</time>
      </trkpt>
      <trkpt lat="45.285000" lon="14.202070">
        <ele>1441.0944</ele>
        <time>2012-05-01T05:54:37Z</time>
      </trkpt>
      <trkpt lat="45.285030" lon="14.202020">
        <ele>1441.3992</ele>
        <time>2012-05-01T05:54:44Z</time>
      </trkpt>
    </trkseg>
  </trk>
</gpx>
